<?xml version='1.0' encoding='UTF-8'?><gpx version="1.1" creator="JPX - https://github.com/jenetics/jpx" xmlns="http://www.topografix.com/GPX/1/1"><trk><trkseg><trkpt lat="45.07019454506923" lon="11.78328111908323"><ele>3.9999999999999996</ele><time>2026-05-02T08:48:50.999Z</time></trkpt><trkpt lat="45.070173873190356" lon="11.783395068367254"><ele>4.0</ele><time>2026-05-02T08:48:52.999Z</time></trkpt><trkpt lat="45.070137651715626" lon="11.783489077076398"><ele>4.0</ele><time>2026-05-02T08:48:54.999Z</time></trkpt><trkpt lat="45.07010412988537" lon="11.783580454448522"><ele>4.0</ele><time>2026-05-02T08:48:56.999Z</time></trkpt><trkpt lat="45.070081267723914" lon="11.783684972616314"><ele>3.9999999999999996</ele><time>2026-05-02T08:48:58.999Z</time></trkpt><trkpt lat="45.07007210215947" lon="11.783796390505515"><ele>4.0</ele><time>2026-05-02T08:49:00.999Z</time></trkpt><trkpt lat="45.07006348451792" lon="11.783908491337952"><ele>3.833333333333333</ele><time>2026-05-02T08:49:02.999Z</time></trkpt><trkpt lat="45.07004364780784" lon="11.784022281911069"><ele>3.6666666666666665</ele><time>2026-05-02T08:49:04.999Z</time></trkpt><trkpt lat="45.07003279881885" lon="11.784136916385341"><ele>3.5</ele><time>2026-05-02T08:49:06.999Z</time></trkpt><trkpt lat="45.07002784075239" lon="11.784244722135407"><ele>3.333333333333333</ele><time>2026-05-02T08:49:08.999Z</time></trkpt><trkpt lat="45.07002476905769" lon="11.784359724985137"><ele>3.1666666666666665</ele><time>2026-05-02T08:49:10.999Z</time></trkpt><trkpt lat="45.07001686896591" lon="11.78449441126373"><ele>3.0</ele><time>2026-05-02T08:49:12.999Z</time></trkpt><trkpt lat="45.07001012013337" lon="11.784640985308725"><ele>3.4</ele><time>2026-05-02T08:49:14.999Z</time></trkpt><trkpt lat="45.070004034303636" lon="11.784784156084289"><ele>3.8</ele><time>2026-05-02T08:49:16.999Z</time></trkpt><trkpt lat="45.0699616760711" lon="11.78486412721479"><ele>4.2</ele><time>2026-05-02T08:49:17.999Z</time></trkpt><trkpt lat="45.06996158769495" lon="11.785031515222402"><ele>4.6</ele><time>2026-05-02T08:49:19.999Z</time></trkpt><trkpt lat="45.069953038253196" lon="11.785120001121435"><ele>5.0</ele><time>2026-05-02T08:49:20.999Z</time></trkpt><trkpt lat="45.069949970505924" lon="11.7852842015903"><ele>4.8</ele><time>2026-05-02T08:49:22.999Z</time></trkpt><trkpt lat="45.06993071474546" lon="11.785447444538478"><ele>4.6</ele><time>2026-05-02T08:49:24.999Z</time></trkpt><trkpt lat="45.06992807289466" lon="11.785580516841655"><ele>4.4</ele><time>2026-05-02T08:49:26.999Z</time></trkpt><trkpt lat="45.069927341135774" lon="11.78570751097374"><ele>4.2</ele><time>2026-05-02T08:49:28.999Z</time></trkpt><trkpt lat="45.06992624029505" lon="11.785808834197198"><ele>4.0</ele><time>2026-05-02T08:49:31.999Z</time></trkpt><trkpt lat="45.070064088347266" lon="11.785811246787095"><ele>4.4</ele><time>2026-05-02T08:49:40.998Z</time></trkpt><trkpt lat="45.07011783698176" lon="11.785738561934874"><ele>4.800000000000001</ele><time>2026-05-02T08:49:41.998Z</time></trkpt><trkpt lat="45.070203180993026" lon="11.785630880886194"><ele>5.199999999999999</ele><time>2026-05-02T08:49:43.998Z</time></trkpt><trkpt lat="45.07029472568167" lon="11.78554968079263"><ele>5.6</ele><time>2026-05-02T08:49:45.998Z</time></trkpt><trkpt lat="45.07036075754713" lon="11.785520012755875"><ele>6.0</ele><time>2026-05-02T08:49:46.998Z</time></trkpt><trkpt lat="45.07048377962979" lon="11.785499145363609"><ele>6.0</ele><time>2026-05-02T08:49:48.998Z</time></trkpt><trkpt lat="45.07054826410989" lon="11.785503237522043"><ele>6.0</ele><time>2026-05-02T08:49:49.998Z</time></trkpt><trkpt lat="45.070665437021795" lon="11.7855102972185"><ele>6.0</ele><time>2026-05-02T08:49:51.998Z</time></trkpt><trkpt lat="45.070775254625204" lon="11.78552963286071"><ele>6.0</ele><time>2026-05-02T08:49:53.998Z</time></trkpt><trkpt lat="45.07083922171161" lon="11.78556079211351"><ele>6.0</ele><time>2026-05-02T08:49:54.998Z</time></trkpt><trkpt lat="45.07090587967582" lon="11.78559872436339"><ele>6.0</ele><time>2026-05-02T08:49:55.998Z</time></trkpt><trkpt lat="45.070965852477414" lon="11.785647383535803"><ele>6.333333333333333</ele><time>2026-05-02T08:49:56.998Z</time></trkpt><trkpt lat="45.07106695347141" lon="11.785745215618633"><ele>6.666666666666666</ele><time>2026-05-02T08:49:58.999Z</time></trkpt><trkpt lat="45.071140095528676" lon="11.785797837527966"><ele>7.0</ele><time>2026-05-02T08:50:00.999Z</time></trkpt><trkpt lat="45.07120653484348" lon="11.785805743700667"><ele>7.333333333333333</ele><time>2026-05-02T08:50:02.999Z</time></trkpt><trkpt lat="45.07127917111611" lon="11.785785315995714"><ele>7.666666666666666</ele><time>2026-05-02T08:50:04.999Z</time></trkpt><trkpt lat="45.07134720489478" lon="11.7857365744292"><ele>8.0</ele><time>2026-05-02T08:50:06.999Z</time></trkpt><trkpt lat="45.07142308989325" lon="11.785717084698126"><ele>7.999999999999999</ele><time>2026-05-02T08:50:08.999Z</time></trkpt><trkpt lat="45.071484258841615" lon="11.785783788038854"><ele>8.0</ele><time>2026-05-02T08:50:10.999Z</time></trkpt><trkpt lat="45.071545887924344" lon="11.785833689818158"><ele>8.0</ele><time>2026-05-02T08:50:12.999Z</time></trkpt><trkpt lat="45.071596101695846" lon="11.785898695722993"><ele>8.0</ele><time>2026-05-02T08:50:20.999Z</time></trkpt><trkpt lat="45.07163402489137" lon="11.78597512813885"><ele>7.999999999999999</ele><time>2026-05-02T08:50:28.999Z</time></trkpt><trkpt lat="45.07169854273021" lon="11.786042471250397"><ele>8.0</ele><time>2026-05-02T08:50:31.999Z</time></trkpt><trkpt lat="45.07180798211333" lon="11.785903054557616"><ele>9.0</ele><time>2026-05-02T08:50:32.999Z</time></trkpt><trkpt lat="45.07186241957684" lon="11.785825849123277"><ele>10.0</ele><time>2026-05-02T08:50:33.999Z</time></trkpt><trkpt lat="45.0719162058214" lon="11.785766473347707"><ele>11.0</ele><time>2026-05-02T08:50:34.999Z</time></trkpt><trkpt lat="45.07196730095952" lon="11.785683348964726"><ele>12.0</ele><time>2026-05-02T08:50:35.999Z</time></trkpt><trkpt lat="45.07201985087731" lon="11.785592464204255"><ele>13.000000000000002</ele><time>2026-05-02T08:50:36.999Z</time></trkpt><trkpt lat="45.072082467097225" lon="11.785512189331644"><ele>14.0</ele><time>2026-05-02T08:50:37.999Z</time></trkpt><trkpt lat="45.07214263252469" lon="11.78540980489258"><ele>14.0</ele><time>2026-05-02T08:50:38.999Z</time></trkpt><trkpt lat="45.07220188082369" lon="11.785327813504392"><ele>13.999999999999998</ele><time>2026-05-02T08:50:39.999Z</time></trkpt><trkpt lat="45.072271600834725" lon="11.785223054090636"><ele>13.999999999999998</ele><time>2026-05-02T08:50:41.999Z</time></trkpt><trkpt lat="45.072311375981464" lon="11.78515010555213"><ele>14.0</ele><time>2026-05-02T08:50:43.999Z</time></trkpt><trkpt lat="45.0723666561416" lon="11.784991458137846"><ele>14.0</ele><time>2026-05-02T08:50:45.999Z</time></trkpt><trkpt lat="45.07241830266881" lon="11.784874655737015"><ele>13.799999999999999</ele><time>2026-05-02T08:50:46.999Z</time></trkpt><trkpt lat="45.07247968186378" lon="11.784735987365163"><ele>13.599999999999998</ele><time>2026-05-02T08:50:47.999Z</time></trkpt><trkpt lat="45.07255311418505" lon="11.784615900667399"><ele>13.4</ele><time>2026-05-02T08:50:49Z</time></trkpt><trkpt lat="45.07260570213047" lon="11.784478212233717"><ele>13.2</ele><time>2026-05-02T08:50:50Z</time></trkpt><trkpt lat="45.072663264018615" lon="11.784359277248344"><ele>13.0</ele><time>2026-05-02T08:50:51Z</time></trkpt><trkpt lat="45.07272684255724" lon="11.784253261691246"><ele>12.166666666666666</ele><time>2026-05-02T08:50:52Z</time></trkpt><trkpt lat="45.07278819242935" lon="11.7841579207495"><ele>11.333333333333332</ele><time>2026-05-02T08:50:53Z</time></trkpt><trkpt lat="45.072848645715155" lon="11.784065922940473"><ele>10.5</ele><time>2026-05-02T08:50:54Z</time></trkpt><trkpt lat="45.07290428169167" lon="11.783971719826553"><ele>9.666666666666666</ele><time>2026-05-02T08:50:55Z</time></trkpt><trkpt lat="45.07295999772368" lon="11.783885026207408"><ele>8.833333333333332</ele><time>2026-05-02T08:50:56Z</time></trkpt><trkpt lat="45.073009190751996" lon="11.78379988731206"><ele>8.0</ele><time>2026-05-02T08:50:57Z</time></trkpt><trkpt lat="45.07305656875963" lon="11.78372039092842"><ele>7.999999999999999</ele><time>2026-05-02T08:50:58Z</time></trkpt><trkpt lat="45.07310389778355" lon="11.783638915787826"><ele>8.0</ele><time>2026-05-02T08:50:59Z</time></trkpt><trkpt lat="45.07315908877665" lon="11.7835630035814"><ele>8.0</ele><time>2026-05-02T08:51:00Z</time></trkpt><trkpt lat="45.07321539637898" lon="11.783495056415306"><ele>8.0</ele><time>2026-05-02T08:51:01Z</time></trkpt><trkpt lat="45.07326962515702" lon="11.783418161335993"><ele>7.999999999999999</ele><time>2026-05-02T08:51:02Z</time></trkpt><trkpt lat="45.07334517541458" lon="11.78329349964972"><ele>8.0</ele><time>2026-05-02T08:51:04Z</time></trkpt><trkpt lat="45.07341241574879" lon="11.78320335996126"><ele>7.666666666666666</ele><time>2026-05-02T08:51:06Z</time></trkpt><trkpt lat="45.07346118157144" lon="11.783144559338425"><ele>7.333333333333333</ele><time>2026-05-02T08:51:08Z</time></trkpt><trkpt lat="45.073514284207356" lon="11.783089651195285"><ele>7.0</ele><time>2026-05-02T08:51:12Z</time></trkpt><trkpt lat="45.07357441525914" lon="11.783041268811685"><ele>6.666666666666666</ele><time>2026-05-02T08:51:15Z</time></trkpt><trkpt lat="45.07365723138561" lon="11.782954365199805"><ele>6.333333333333333</ele><time>2026-05-02T08:51:23Z</time></trkpt><trkpt lat="45.07378564410909" lon="11.782985160600402"><ele>6.0</ele><time>2026-05-02T08:51:25Z</time></trkpt><trkpt lat="45.07385864224484" lon="11.78296079946335"><ele>6.0</ele><time>2026-05-02T08:51:26Z</time></trkpt><trkpt lat="45.07393178022508" lon="11.782939437566489"><ele>6.0</ele><time>2026-05-02T08:51:27Z</time></trkpt><trkpt lat="45.07400305349922" lon="11.782893307757295"><ele>6.0</ele><time>2026-05-02T08:51:28Z</time></trkpt><trkpt lat="45.07405989038358" lon="11.782819510877292"><ele>6.0</ele><time>2026-05-02T08:51:29Z</time></trkpt><trkpt lat="45.074085502263216" lon="11.782714836727859"><ele>6.0</ele><time>2026-05-02T08:51:30Z</time></trkpt><trkpt lat="45.07407834001872" lon="11.78260013249735"><ele>6.0</ele><time>2026-05-02T08:51:31Z</time></trkpt><trkpt lat="45.07403704192371" lon="11.782501457375515"><ele>5.666666666666667</ele><time>2026-05-02T08:51:32Z</time></trkpt><trkpt lat="45.07398509684853" lon="11.782420613104511"><ele>5.333333333333333</ele><time>2026-05-02T08:51:33Z</time></trkpt><trkpt lat="45.07391841363604" lon="11.782343509880377"><ele>5.0</ele><time>2026-05-02T08:51:34Z</time></trkpt><trkpt lat="45.07385485181168" lon="11.78226144828077"><ele>4.666666666666666</ele><time>2026-05-02T08:51:35Z</time></trkpt><trkpt lat="45.07379579282926" lon="11.782190268746206"><ele>4.333333333333333</ele><time>2026-05-02T08:51:36Z</time></trkpt><trkpt lat="45.07373959035394" lon="11.782117170362119"><ele>4.0</ele><time>2026-05-02T08:51:37Z</time></trkpt><trkpt lat="45.07367416948473" lon="11.782042468776059"><ele>4.0</ele><time>2026-05-02T08:51:38Z</time></trkpt><trkpt lat="45.07359743021884" lon="11.781964348038278"><ele>4.0</ele><time>2026-05-02T08:51:39Z</time></trkpt><trkpt lat="45.07351098505011" lon="11.781892513765793"><ele>4.0</ele><time>2026-05-02T08:51:40Z</time></trkpt><trkpt lat="45.073413246276225" lon="11.78184873314937"><ele>4.0</ele><time>2026-05-02T08:51:41Z</time></trkpt><trkpt lat="45.0733139096813" lon="11.781804881261793"><ele>4.0</ele><time>2026-05-02T08:51:42Z</time></trkpt><trkpt lat="45.073218766955776" lon="11.78176580992432"><ele>3.8000000000000003</ele><time>2026-05-02T08:51:43Z</time></trkpt><trkpt lat="45.07312606001407" lon="11.781739436117107"><ele>3.6000000000000005</ele><time>2026-05-02T08:51:43.999Z</time></trkpt><trkpt lat="45.073032588903985" lon="11.781714370498417"><ele>3.4</ele><time>2026-05-02T08:51:44.999Z</time></trkpt><trkpt lat="45.072952902865794" lon="11.78169721207702"><ele>3.2</ele><time>2026-05-02T08:51:45.999Z</time></trkpt><trkpt lat="45.07291662421052" lon="11.781502795167473"><ele>3.0</ele><time>2026-05-02T08:51:46.999Z</time></trkpt><trkpt lat="45.072888441930786" lon="11.781397474759494"><ele>3.0</ele><time>2026-05-02T08:51:47.999Z</time></trkpt><trkpt lat="45.07290544669075" lon="11.781283595911315"><ele>3.0</ele><time>2026-05-02T08:51:48.999Z</time></trkpt><trkpt lat="45.07290677404589" lon="11.78116339698687"><ele>3.0</ele><time>2026-05-02T08:51:49.999Z</time></trkpt><trkpt lat="45.072907773278004" lon="11.78104315835821"><ele>3.0</ele><time>2026-05-02T08:51:50.999Z</time></trkpt><trkpt lat="45.07291055471151" lon="11.780914188335595"><ele>3.0</ele><time>2026-05-02T08:51:51.999Z</time></trkpt><trkpt lat="45.07291866720589" lon="11.780779955153097"><ele>3.0</ele><time>2026-05-02T08:51:52.999Z</time></trkpt><trkpt lat="45.07293734239108" lon="11.780665430245943"><ele>3.2</ele><time>2026-05-02T08:51:53.999Z</time></trkpt><trkpt lat="45.07296720388014" lon="11.780524883047816"><ele>3.4</ele><time>2026-05-02T08:51:54.999Z</time></trkpt><trkpt lat="45.07303405811904" lon="11.780407616049624"><ele>3.6000000000000005</ele><time>2026-05-02T08:51:55.999Z</time></trkpt><trkpt lat="45.0731169828912" lon="11.780297735297724"><ele>3.8000000000000003</ele><time>2026-05-02T08:51:56.999Z</time></trkpt><trkpt lat="45.073196078241104" lon="11.780189117010952"><ele>4.0</ele><time>2026-05-02T08:51:57.999Z</time></trkpt><trkpt lat="45.0732790004005" lon="11.780080461701786"><ele>4.2</ele><time>2026-05-02T08:51:58.999Z</time></trkpt><trkpt lat="45.0733593619107" lon="11.779975244789066"><ele>4.4</ele><time>2026-05-02T08:51:59.999Z</time></trkpt><trkpt lat="45.07342816603567" lon="11.779862032700535"><ele>4.6</ele><time>2026-05-02T08:52:00.999Z</time></trkpt><trkpt lat="45.07350371069139" lon="11.779755596714681"><ele>4.8</ele><time>2026-05-02T08:52:01.999Z</time></trkpt><trkpt lat="45.07356945685333" lon="11.779645088183313"><ele>5.0</ele><time>2026-05-02T08:52:02.999Z</time></trkpt><trkpt lat="45.07363152876374" lon="11.779535742548267"><ele>5.0</ele><time>2026-05-02T08:52:03.999Z</time></trkpt><trkpt lat="45.07368776799444" lon="11.77944089262663"><ele>5.0</ele><time>2026-05-02T08:52:04.999Z</time></trkpt><trkpt lat="45.07372632825018" lon="11.779348512691893"><ele>5.0</ele><time>2026-05-02T08:52:05.999Z</time></trkpt><trkpt lat="45.07376694965892" lon="11.779233454952935"><ele>5.0</ele><time>2026-05-02T08:52:06.999Z</time></trkpt><trkpt lat="45.07383268487689" lon="11.77911203364763"><ele>5.0</ele><time>2026-05-02T08:52:07.999Z</time></trkpt><trkpt lat="45.07388716544366" lon="11.778947406055963"><ele>5.0</ele><time>2026-05-02T08:52:08.999Z</time></trkpt><trkpt lat="45.073955437448376" lon="11.778795997254822"><ele>5.0</ele><time>2026-05-02T08:52:09.999Z</time></trkpt><trkpt lat="45.074020106325584" lon="11.778647229185486"><ele>5.0</ele><time>2026-05-02T08:52:10.999Z</time></trkpt><trkpt lat="45.07407727129237" lon="11.778501208451955"><ele>5.0</ele><time>2026-05-02T08:52:12Z</time></trkpt><trkpt lat="45.0741230195241" lon="11.778339506266473"><ele>5.0</ele><time>2026-05-02T08:52:13Z</time></trkpt><trkpt lat="45.07415855356694" lon="11.778182480948844"><ele>5.0</ele><time>2026-05-02T08:52:14Z</time></trkpt><trkpt lat="45.07418019171032" lon="11.778054607618976"><ele>5.0</ele><time>2026-05-02T08:52:15Z</time></trkpt><trkpt lat="45.07419045848896" lon="11.777951078316695"><ele>5.0</ele><time>2026-05-02T08:52:16Z</time></trkpt><trkpt lat="45.07419597346607" lon="11.777843067635496"><ele>5.0</ele><time>2026-05-02T08:52:18Z</time></trkpt><trkpt lat="45.07421090847396" lon="11.777723372266111"><ele>5.0</ele><time>2026-05-02T08:52:31Z</time></trkpt><trkpt lat="45.07421397585058" lon="11.77762880455513"><ele>5.166666666666667</ele><time>2026-05-02T08:52:33Z</time></trkpt><trkpt lat="45.07421351488776" lon="11.777525833866372"><ele>5.333333333333334</ele><time>2026-05-02T08:52:36Z</time></trkpt><trkpt lat="45.07421085931056" lon="11.77742204009874"><ele>5.5</ele><time>2026-05-02T08:52:38Z</time></trkpt><trkpt lat="45.07418960355028" lon="11.777271076407036"><ele>5.666666666666667</ele><time>2026-05-02T08:52:40Z</time></trkpt><trkpt lat="45.074190219893865" lon="11.777180375152538"><ele>5.833333333333333</ele><time>2026-05-02T08:52:41Z</time></trkpt><trkpt lat="45.074200511805095" lon="11.777078532095835"><ele>6.0</ele><time>2026-05-02T08:52:42Z</time></trkpt><trkpt lat="45.07419828576937" lon="11.77698661827062"><ele>6.0</ele><time>2026-05-02T08:52:43Z</time></trkpt><trkpt lat="45.074196313078396" lon="11.776876654571295"><ele>6.0</ele><time>2026-05-02T08:52:44Z</time></trkpt><trkpt lat="45.074188626140604" lon="11.776760213336749"><ele>6.0</ele><time>2026-05-02T08:52:45Z</time></trkpt><trkpt lat="45.07418022615579" lon="11.77662524230454"><ele>6.0</ele><time>2026-05-02T08:52:46Z</time></trkpt><trkpt lat="45.074106019791564" lon="11.776517943334051"><ele>6.0</ele><time>2026-05-02T08:52:47Z</time></trkpt><trkpt lat="45.07416986960583" lon="11.776384882730403"><ele>6.0</ele><time>2026-05-02T08:52:48Z</time></trkpt><trkpt lat="45.07416797959083" lon="11.776253044153245"><ele>6.0</ele><time>2026-05-02T08:52:49Z</time></trkpt><trkpt lat="45.07416588569876" lon="11.776116901383421"><ele>6.0</ele><time>2026-05-02T08:52:50Z</time></trkpt><trkpt lat="45.07416745383359" lon="11.775959149815444"><ele>6.0</ele><time>2026-05-02T08:52:51Z</time></trkpt><trkpt lat="45.074153281087476" lon="11.77580733669901"><ele>6.0</ele><time>2026-05-02T08:52:52Z</time></trkpt><trkpt lat="45.07412727132276" lon="11.775647805774064"><ele>5.5</ele><time>2026-05-02T08:52:53Z</time></trkpt><trkpt lat="45.07409517415436" lon="11.775498010009631"><ele>5.0</ele><time>2026-05-02T08:52:54Z</time></trkpt><trkpt lat="45.07406789913812" lon="11.775374793004726"><ele>4.5</ele><time>2026-05-02T08:52:55Z</time></trkpt><trkpt lat="45.07401748194846" lon="11.77519138129356"><ele>4.0</ele><time>2026-05-02T08:52:56Z</time></trkpt><trkpt lat="45.07396959299588" lon="11.77504481250672"><ele>4.0</ele><time>2026-05-02T08:52:57Z</time></trkpt><trkpt lat="45.073922414405665" lon="11.774889716375258"><ele>4.0</ele><time>2026-05-02T08:52:58Z</time></trkpt><trkpt lat="45.07386950056247" lon="11.774726044591716"><ele>4.0</ele><time>2026-05-02T08:52:59Z</time></trkpt><trkpt lat="45.07381629579157" lon="11.774556276089665"><ele>4.0</ele><time>2026-05-02T08:53:00Z</time></trkpt><trkpt lat="45.07376159177601" lon="11.774397669300923"><ele>4.5</ele><time>2026-05-02T08:53:01Z</time></trkpt><trkpt lat="45.07370013971385" lon="11.774238373214548"><ele>5.0</ele><time>2026-05-02T08:53:02Z</time></trkpt><trkpt lat="45.07363842683632" lon="11.7740799332863"><ele>5.5</ele><time>2026-05-02T08:53:03Z</time></trkpt><trkpt lat="45.073568200395734" lon="11.773934959850118"><ele>6.0</ele><time>2026-05-02T08:53:04Z</time></trkpt><trkpt lat="45.073503578943814" lon="11.773795280855213"><ele>6.0</ele><time>2026-05-02T08:53:05Z</time></trkpt><trkpt lat="45.073449556133234" lon="11.773660473451526"><ele>6.0</ele><time>2026-05-02T08:53:06Z</time></trkpt><trkpt lat="45.073390175285766" lon="11.773536312015864"><ele>6.0</ele><time>2026-05-02T08:53:07Z</time></trkpt><trkpt lat="45.073333301187496" lon="11.773399896874212"><ele>6.0</ele><time>2026-05-02T08:53:08Z</time></trkpt><trkpt lat="45.0732732773828" lon="11.773259314663965"><ele>6.0</ele><time>2026-05-02T08:53:09Z</time></trkpt><trkpt lat="45.07321411341411" lon="11.773131932258913"><ele>5.5</ele><time>2026-05-02T08:53:10Z</time></trkpt><trkpt lat="45.07315656078779" lon="11.772990210088993"><ele>5.0</ele><time>2026-05-02T08:53:11Z</time></trkpt><trkpt lat="45.073099609925606" lon="11.772838868796455"><ele>4.5</ele><time>2026-05-02T08:53:12Z</time></trkpt><trkpt lat="45.07302151269139" lon="11.772681425831292"><ele>4.0</ele><time>2026-05-02T08:53:13Z</time></trkpt><trkpt lat="45.07292330408376" lon="11.772473512663597"><ele>4.0</ele><time>2026-05-02T08:53:14Z</time></trkpt><trkpt lat="45.072844948341555" lon="11.772298416630903"><ele>4.0</ele><time>2026-05-02T08:53:15Z</time></trkpt><trkpt lat="45.07278247838346" lon="11.772145260757235"><ele>4.0</ele><time>2026-05-02T08:53:16Z</time></trkpt><trkpt lat="45.0727122020306" lon="11.77200706362458"><ele>4.0</ele><time>2026-05-02T08:53:17Z</time></trkpt><trkpt lat="45.07263908880624" lon="11.771870580559508"><ele>4.0</ele><time>2026-05-02T08:53:18Z</time></trkpt><trkpt lat="45.072574853186545" lon="11.771722822873048"><ele>4.0</ele><time>2026-05-02T08:53:19Z</time></trkpt><trkpt lat="45.072526222118995" lon="11.771599357652253"><ele>4.0</ele><time>2026-05-02T08:53:20Z</time></trkpt><trkpt lat="45.072473072318104" lon="11.77150765662952"><ele>4.0</ele><time>2026-05-02T08:53:21Z</time></trkpt><trkpt lat="45.07242253993215" lon="11.771423531686713"><ele>4.0</ele><time>2026-05-02T08:53:22Z</time></trkpt><trkpt lat="45.07234139833135" lon="11.771280472976416"><ele>4.0</ele><time>2026-05-02T08:53:24.001Z</time></trkpt><trkpt lat="45.07228402475392" lon="11.771170438744893"><ele>4.0</ele><time>2026-05-02T08:53:25.001Z</time></trkpt><trkpt lat="45.072212923684965" lon="11.771048967507609"><ele>4.0</ele><time>2026-05-02T08:53:26.001Z</time></trkpt><trkpt lat="45.07211163964491" lon="11.770944253016962"><ele>4.0</ele><time>2026-05-02T08:53:27.001Z</time></trkpt><trkpt lat="45.0720507511236" lon="11.770739620206045"><ele>4.0</ele><time>2026-05-02T08:53:28.001Z</time></trkpt><trkpt lat="45.071972093607855" lon="11.770575503087569"><ele>4.0</ele><time>2026-05-02T08:53:29.001Z</time></trkpt><trkpt lat="45.071915564419136" lon="11.770418042677356"><ele>4.0</ele><time>2026-05-02T08:53:30.001Z</time></trkpt><trkpt lat="45.071862765427355" lon="11.770264873436439"><ele>4.0</ele><time>2026-05-02T08:53:31.001Z</time></trkpt><trkpt lat="45.071810042444305" lon="11.770118708011076"><ele>4.0</ele><time>2026-05-02T08:53:32.001Z</time></trkpt><trkpt lat="45.07176451513788" lon="11.769990111709658"><ele>4.0</ele><time>2026-05-02T08:53:33.001Z</time></trkpt><trkpt lat="45.07172827838524" lon="11.769870538306229"><ele>4.0</ele><time>2026-05-02T08:53:34.001Z</time></trkpt><trkpt lat="45.07171217835382" lon="11.769739273562076"><ele>4.0</ele><time>2026-05-02T08:53:35.001Z</time></trkpt><trkpt lat="45.071726889603795" lon="11.769605928190034"><ele>4.0</ele><time>2026-05-02T08:53:36.001Z</time></trkpt><trkpt lat="45.071771307675114" lon="11.769486714299502"><ele>4.0</ele><time>2026-05-02T08:53:37.001Z</time></trkpt><trkpt lat="45.071858265555214" lon="11.769381075747406"><ele>4.0</ele><time>2026-05-02T08:53:38.001Z</time></trkpt><trkpt lat="45.071955438075705" lon="11.769247870447549"><ele>4.0</ele><time>2026-05-02T08:53:39.001Z</time></trkpt><trkpt lat="45.072041647498764" lon="11.76911100718541"><ele>4.0</ele><time>2026-05-02T08:53:40.001Z</time></trkpt><trkpt lat="45.072100020519414" lon="11.769016114606591"><ele>4.0</ele><time>2026-05-02T08:53:41.001Z</time></trkpt><trkpt lat="45.072143249095284" lon="11.768939146127796"><ele>4.0</ele><time>2026-05-02T08:53:42.001Z</time></trkpt><trkpt lat="45.07218799819292" lon="11.768855822072144"><ele>4.0</ele><time>2026-05-02T08:53:44.001Z</time></trkpt><trkpt lat="45.072128357408545" lon="11.768706554555644"><ele>4.0</ele><time>2026-05-02T08:53:50Z</time></trkpt><trkpt lat="45.07204349435956" lon="11.76861364989305"><ele>4.0</ele><time>2026-05-02T08:53:51Z</time></trkpt><trkpt lat="45.07194474334449" lon="11.768493389424696"><ele>4.0</ele><time>2026-05-02T08:53:52Z</time></trkpt><trkpt lat="45.07183742349716" lon="11.76836914500361"><ele>4.0</ele><time>2026-05-02T08:53:53Z</time></trkpt><trkpt lat="45.071717500282034" lon="11.768245418051285"><ele>4.0</ele><time>2026-05-02T08:53:54Z</time></trkpt><trkpt lat="45.071583537759956" lon="11.768114079958572"><ele>4.333333333333333</ele><time>2026-05-02T08:53:55Z</time></trkpt><trkpt lat="45.07143823780267" lon="11.767986749452731"><ele>4.666666666666667</ele><time>2026-05-02T08:53:56Z</time></trkpt><trkpt lat="45.07127436666203" lon="11.767869664503772"><ele>5.0</ele><time>2026-05-02T08:53:57Z</time></trkpt><trkpt lat="45.07110060867842" lon="11.767759698865715"><ele>5.0</ele><time>2026-05-02T08:53:58Z</time></trkpt><trkpt lat="45.07093215479357" lon="11.767648693834248"><ele>5.0</ele><time>2026-05-02T08:53:59Z</time></trkpt><trkpt lat="45.070807737364824" lon="11.767488673834857"><ele>5.0</ele><time>2026-05-02T08:54:00Z</time></trkpt><trkpt lat="45.07069914890145" lon="11.767318835008044"><ele>5.0</ele><time>2026-05-02T08:54:01Z</time></trkpt><trkpt lat="45.07060492660408" lon="11.76711812352997"><ele>5.0</ele><time>2026-05-02T08:54:02Z</time></trkpt><trkpt lat="45.070515523333334" lon="11.766910718635744"><ele>5.0</ele><time>2026-05-02T08:54:03Z</time></trkpt><trkpt lat="45.07044495422342" lon="11.76668568011174"><ele>5.333333333333334</ele><time>2026-05-02T08:54:04Z</time></trkpt><trkpt lat="45.070377407274954" lon="11.766462865857084"><ele>5.666666666666667</ele><time>2026-05-02T08:54:05Z</time></trkpt><trkpt lat="45.070343774925725" lon="11.7662244970962"><ele>6.0</ele><time>2026-05-02T08:54:06Z</time></trkpt><trkpt lat="45.07033590301681" lon="11.76597630302892"><ele>6.0</ele><time>2026-05-02T08:54:07Z</time></trkpt><trkpt lat="45.07034591299239" lon="11.765718797647066"><ele>6.0</ele><time>2026-05-02T08:54:08Z</time></trkpt><trkpt lat="45.070362285281426" lon="11.765454389067294"><ele>6.0</ele><time>2026-05-02T08:54:09Z</time></trkpt><trkpt lat="45.07038404284416" lon="11.765185543832963"><ele>6.0</ele><time>2026-05-02T08:54:10Z</time></trkpt><trkpt lat="45.07041210596848" lon="11.76489598509853"><ele>6.0</ele><time>2026-05-02T08:54:11Z</time></trkpt><trkpt lat="45.07044752635242" lon="11.764580767171548"><ele>6.0</ele><time>2026-05-02T08:54:12Z</time></trkpt><trkpt lat="45.070484010442065" lon="11.764247913256213"><ele>6.0</ele><time>2026-05-02T08:54:13Z</time></trkpt><trkpt lat="45.0705189043624" lon="11.763944560086578"><ele>6.0</ele><time>2026-05-02T08:54:14Z</time></trkpt><trkpt lat="45.070554998770945" lon="11.763667536450546"><ele>6.0</ele><time>2026-05-02T08:54:15Z</time></trkpt><trkpt lat="45.07060554162777" lon="11.763411799853525"><ele>6.0</ele><time>2026-05-02T08:54:16Z</time></trkpt><trkpt lat="45.0706692463096" lon="11.763152713361105"><ele>6.0</ele><time>2026-05-02T08:54:17Z</time></trkpt><trkpt lat="45.0707432668523" lon="11.762912432372671"><ele>6.0</ele><time>2026-05-02T08:54:18Z</time></trkpt><trkpt lat="45.070808051524004" lon="11.762665826054317"><ele>5.666666666666667</ele><time>2026-05-02T08:54:19Z</time></trkpt><trkpt lat="45.07085582758851" lon="11.762399151713213"><ele>5.333333333333334</ele><time>2026-05-02T08:54:20Z</time></trkpt><trkpt lat="45.07090120310035" lon="11.76214973580393"><ele>5.0</ele><time>2026-05-02T08:54:21Z</time></trkpt><trkpt lat="45.070939777866094" lon="11.761931063659704"><ele>5.333333333333334</ele><time>2026-05-02T08:54:22Z</time></trkpt><trkpt lat="45.070974370674655" lon="11.761706819498976"><ele>5.666666666666667</ele><time>2026-05-02T08:54:23Z</time></trkpt><trkpt lat="45.07100142412019" lon="11.761476033849863"><ele>6.0</ele><time>2026-05-02T08:54:24Z</time></trkpt><trkpt lat="45.071018683313575" lon="11.761239139328119"><ele>5.666666666666667</ele><time>2026-05-02T08:54:25Z</time></trkpt><trkpt lat="45.07102428423308" lon="11.760994467397877"><ele>5.333333333333334</ele><time>2026-05-02T08:54:26Z</time></trkpt><trkpt lat="45.071031056981944" lon="11.760735983576161"><ele>5.0</ele><time>2026-05-02T08:54:27Z</time></trkpt><trkpt lat="45.07106630864708" lon="11.760467161948464"><ele>4.666666666666667</ele><time>2026-05-02T08:54:28Z</time></trkpt><trkpt lat="45.07109909817861" lon="11.760178472835898"><ele>4.333333333333333</ele><time>2026-05-02T08:54:29Z</time></trkpt><trkpt lat="45.07112600143654" lon="11.759861800917077"><ele>4.0</ele><time>2026-05-02T08:54:30Z</time></trkpt><trkpt lat="45.071170015908116" lon="11.759547618321069"><ele>3.6666666666666665</ele><time>2026-05-02T08:54:31Z</time></trkpt><trkpt lat="45.07123184145886" lon="11.759260178179325"><ele>3.333333333333333</ele><time>2026-05-02T08:54:32Z</time></trkpt><trkpt lat="45.07129030806537" lon="11.758978117337708"><ele>3.0</ele><time>2026-05-02T08:54:33Z</time></trkpt><trkpt lat="45.07136871497943" lon="11.758694094754667"><ele>3.5</ele><time>2026-05-02T08:54:34Z</time></trkpt><trkpt lat="45.0714466584515" lon="11.75838302837907"><ele>4.0</ele><time>2026-05-02T08:54:35Z</time></trkpt><trkpt lat="45.07154046550959" lon="11.75807801778753"><ele>4.0</ele><time>2026-05-02T08:54:36Z</time></trkpt><trkpt lat="45.0716149589022" lon="11.757795822634975"><ele>4.0</ele><time>2026-05-02T08:54:37Z</time></trkpt><trkpt lat="45.071676703569686" lon="11.757533062765802"><ele>4.0</ele><time>2026-05-02T08:54:38Z</time></trkpt><trkpt lat="45.07171871515291" lon="11.757273770908704"><ele>4.0</ele><time>2026-05-02T08:54:39Z</time></trkpt><trkpt lat="45.07174588845436" lon="11.757004442564439"><ele>4.0</ele><time>2026-05-02T08:54:40Z</time></trkpt><trkpt lat="45.071758895923395" lon="11.756725203172248"><ele>4.0</ele><time>2026-05-02T08:54:41Z</time></trkpt><trkpt lat="45.07176241481617" lon="11.756441350719054"><ele>4.0</ele><time>2026-05-02T08:54:42Z</time></trkpt><trkpt lat="45.071762053601994" lon="11.756175506404336"><ele>4.0</ele><time>2026-05-02T08:54:43Z</time></trkpt><trkpt lat="45.0717624873605" lon="11.755937043039165"><ele>4.0</ele><time>2026-05-02T08:54:44Z</time></trkpt><trkpt lat="45.07177029536903" lon="11.755718646988923"><ele>4.333333333333333</ele><time>2026-05-02T08:54:45Z</time></trkpt><trkpt lat="45.07178856475729" lon="11.75550720084601"><ele>4.666666666666667</ele><time>2026-05-02T08:54:46Z</time></trkpt><trkpt lat="45.07182446798753" lon="11.755294046593697"><ele>5.0</ele><time>2026-05-02T08:54:47Z</time></trkpt><trkpt lat="45.07186687841652" lon="11.755079576256126"><ele>5.0</ele><time>2026-05-02T08:54:48Z</time></trkpt><trkpt lat="45.07191483593052" lon="11.754853296620048"><ele>5.0</ele><time>2026-05-02T08:54:49Z</time></trkpt><trkpt lat="45.071959907830795" lon="11.754631653358098"><ele>5.0</ele><time>2026-05-02T08:54:50Z</time></trkpt><trkpt lat="45.072010935575584" lon="11.754415998384886"><ele>5.0</ele><time>2026-05-02T08:54:51Z</time></trkpt><trkpt lat="45.072065573793644" lon="11.754198052059442"><ele>5.0</ele><time>2026-05-02T08:54:52Z</time></trkpt><trkpt lat="45.0721254950618" lon="11.753986129922326"><ele>5.0</ele><time>2026-05-02T08:54:53Z</time></trkpt><trkpt lat="45.072191849916805" lon="11.753774178755556"><ele>5.0</ele><time>2026-05-02T08:54:54Z</time></trkpt><trkpt lat="45.072258933285504" lon="11.75357378265202"><ele>5.0</ele><time>2026-05-02T08:54:55Z</time></trkpt><trkpt lat="45.07232127898878" lon="11.753392573646188"><ele>5.0</ele><time>2026-05-02T08:54:56Z</time></trkpt><trkpt lat="45.072389567978526" lon="11.753227284525948"><ele>5.0</ele><time>2026-05-02T08:54:57Z</time></trkpt><trkpt lat="45.07248777050233" lon="11.753105811843566"><ele>4.75</ele><time>2026-05-02T08:54:58.001Z</time></trkpt><trkpt lat="45.07259855421982" lon="11.753039206356393"><ele>4.5</ele><time>2026-05-02T08:54:59.001Z</time></trkpt><trkpt lat="45.07272069635501" lon="11.753001014637434"><ele>4.25</ele><time>2026-05-02T08:55:00.001Z</time></trkpt><trkpt lat="45.07285974350088" lon="11.752981303434312"><ele>4.0</ele><time>2026-05-02T08:55:01.001Z</time></trkpt><trkpt lat="45.07302124637584" lon="11.752952494695108"><ele>4.0</ele><time>2026-05-02T08:55:02.001Z</time></trkpt><trkpt lat="45.07321086861436" lon="11.752944748266161"><ele>4.0</ele><time>2026-05-02T08:55:03.001Z</time></trkpt><trkpt lat="45.07341832374673" lon="11.752926300138645"><ele>4.0</ele><time>2026-05-02T08:55:04.001Z</time></trkpt><trkpt lat="45.073606030677674" lon="11.752902057071605"><ele>4.0</ele><time>2026-05-02T08:55:05.001Z</time></trkpt><trkpt lat="45.07377048093893" lon="11.752876942917304"><ele>4.0</ele><time>2026-05-02T08:55:06.001Z</time></trkpt><trkpt lat="45.07392073453836" lon="11.75281588350005"><ele>4.0</ele><time>2026-05-02T08:55:07.001Z</time></trkpt><trkpt lat="45.074072288814065" lon="11.752719291608491"><ele>4.0</ele><time>2026-05-02T08:55:08.001Z</time></trkpt><trkpt lat="45.074221856491974" lon="11.752597804948758"><ele>4.0</ele><time>2026-05-02T08:55:09.001Z</time></trkpt><trkpt lat="45.074353420092294" lon="11.752447915559172"><ele>4.0</ele><time>2026-05-02T08:55:10.001Z</time></trkpt><trkpt lat="45.07446763010144" lon="11.752266184353108"><ele>4.0</ele><time>2026-05-02T08:55:11.001Z</time></trkpt><trkpt lat="45.074567767483074" lon="11.75207759013521"><ele>4.0</ele><time>2026-05-02T08:55:12.001Z</time></trkpt><trkpt lat="45.07465138830629" lon="11.75188288627082"><ele>4.0</ele><time>2026-05-02T08:55:13.001Z</time></trkpt><trkpt lat="45.07471757709055" lon="11.751680985722645"><ele>4.0</ele><time>2026-05-02T08:55:14.001Z</time></trkpt><trkpt lat="45.074779406408915" lon="11.751475548229585"><ele>4.0</ele><time>2026-05-02T08:55:15.001Z</time></trkpt><trkpt lat="45.07482789368676" lon="11.751278063800708"><ele>4.0</ele><time>2026-05-02T08:55:16.001Z</time></trkpt><trkpt lat="45.07486725081364" lon="11.751057416626267"><ele>4.0</ele><time>2026-05-02T08:55:17.001Z</time></trkpt><trkpt lat="45.074891392868984" lon="11.750818197389398"><ele>4.0</ele><time>2026-05-02T08:55:18.001Z</time></trkpt><trkpt lat="45.07489766542884" lon="11.750552856108387"><ele>4.0</ele><time>2026-05-02T08:55:19.001Z</time></trkpt><trkpt lat="45.074901169546536" lon="11.750311013322188"><ele>4.333333333333333</ele><time>2026-05-02T08:55:20.001Z</time></trkpt><trkpt lat="45.07489807752037" lon="11.750089223279819"><ele>4.666666666666667</ele><time>2026-05-02T08:55:21.001Z</time></trkpt><trkpt lat="45.07488363599048" lon="11.749860287104578"><ele>5.0</ele><time>2026-05-02T08:55:22.001Z</time></trkpt><trkpt lat="45.07484683600322" lon="11.749618921529684"><ele>5.666666666666667</ele><time>2026-05-02T08:55:23.001Z</time></trkpt><trkpt lat="45.074799897140124" lon="11.749350670527427"><ele>6.333333333333334</ele><time>2026-05-02T08:55:24.001Z</time></trkpt><trkpt lat="45.074748389370704" lon="11.749058486771315"><ele>7.0</ele><time>2026-05-02T08:55:25.001Z</time></trkpt><trkpt lat="45.07469943001423" lon="11.748797236595479"><ele>7.0</ele><time>2026-05-02T08:55:26.001Z</time></trkpt><trkpt lat="45.074657025030106" lon="11.748558165487411"><ele>7.0</ele><time>2026-05-02T08:55:27.001Z</time></trkpt><trkpt lat="45.07460143064575" lon="11.748334115276172"><ele>7.0</ele><time>2026-05-02T08:55:28.001Z</time></trkpt><trkpt lat="45.07451585281626" lon="11.74810398918092"><ele>6.666666666666667</ele><time>2026-05-02T08:55:29.001Z</time></trkpt><trkpt lat="45.07441223283092" lon="11.747850397636908"><ele>6.333333333333334</ele><time>2026-05-02T08:55:30.001Z</time></trkpt><trkpt lat="45.07430566357197" lon="11.747581631531684"><ele>6.0</ele><time>2026-05-02T08:55:31.001Z</time></trkpt><trkpt lat="45.074222828578385" lon="11.747268405605883"><ele>5.666666666666667</ele><time>2026-05-02T08:55:32.001Z</time></trkpt><trkpt lat="45.07414557705723" lon="11.746982231085145"><ele>5.333333333333334</ele><time>2026-05-02T08:55:33.001Z</time></trkpt><trkpt lat="45.07408899989455" lon="11.746717260525859"><ele>5.0</ele><time>2026-05-02T08:55:34.001Z</time></trkpt><trkpt lat="45.074050903894666" lon="11.746461797698101"><ele>5.0</ele><time>2026-05-02T08:55:35.001Z</time></trkpt><trkpt lat="45.07401429586203" lon="11.746201496994994"><ele>5.0</ele><time>2026-05-02T08:55:36.001Z</time></trkpt><trkpt lat="45.07399569256293" lon="11.745939628088587"><ele>5.0</ele><time>2026-05-02T08:55:37.001Z</time></trkpt><trkpt lat="45.073971627625475" lon="11.745680971081585"><ele>5.0</ele><time>2026-05-02T08:55:38.001Z</time></trkpt><trkpt lat="45.073936187952846" lon="11.745423389775672"><ele>5.0</ele><time>2026-05-02T08:55:39.001Z</time></trkpt><trkpt lat="45.073879095878205" lon="11.745170066293968"><ele>5.0</ele><time>2026-05-02T08:55:40.001Z</time></trkpt><trkpt lat="45.073800962951566" lon="11.744916461357283"><ele>5.0</ele><time>2026-05-02T08:55:41.001Z</time></trkpt><trkpt lat="45.07372783897322" lon="11.744679411659897"><ele>5.0</ele><time>2026-05-02T08:55:42.001Z</time></trkpt><trkpt lat="45.073659745929874" lon="11.744453319361225"><ele>5.0</ele><time>2026-05-02T08:55:43.001Z</time></trkpt><trkpt lat="45.07360079484319" lon="11.7442314640059"><ele>5.0</ele><time>2026-05-02T08:55:44.001Z</time></trkpt><trkpt lat="45.07354352477735" lon="11.74401328050045"><ele>5.0</ele><time>2026-05-02T08:55:45.001Z</time></trkpt><trkpt lat="45.07349466944086" lon="11.743797178964478"><ele>5.0</ele><time>2026-05-02T08:55:46.001Z</time></trkpt><trkpt lat="45.07345793915577" lon="11.743598775357578"><ele>4.75</ele><time>2026-05-02T08:55:47.001Z</time></trkpt><trkpt lat="45.07342574212826" lon="11.743404626149218"><ele>4.5</ele><time>2026-05-02T08:55:48.001Z</time></trkpt><trkpt lat="45.073415558982596" lon="11.74322249739403"><ele>4.25</ele><time>2026-05-02T08:55:49.001Z</time></trkpt><trkpt lat="45.07342939311338" lon="11.743038102614083"><ele>4.0</ele><time>2026-05-02T08:55:50.001Z</time></trkpt><trkpt lat="45.07346153011936" lon="11.742846205901465"><ele>4.25</ele><time>2026-05-02T08:55:51.001Z</time></trkpt><trkpt lat="45.073510174364245" lon="11.742655132434969"><ele>4.5</ele><time>2026-05-02T08:55:52.001Z</time></trkpt><trkpt lat="45.07357284002615" lon="11.742463822052821"><ele>4.75</ele><time>2026-05-02T08:55:53.001Z</time></trkpt><trkpt lat="45.073655197440196" lon="11.742280101412529"><ele>5.0</ele><time>2026-05-02T08:55:54.001Z</time></trkpt><trkpt lat="45.073739069803345" lon="11.742084902632012"><ele>5.0</ele><time>2026-05-02T08:55:55.001Z</time></trkpt><trkpt lat="45.073803968618975" lon="11.741892697485989"><ele>5.0</ele><time>2026-05-02T08:55:56.001Z</time></trkpt><trkpt lat="45.07385323443211" lon="11.741697234923368"><ele>5.0</ele><time>2026-05-02T08:55:57.001Z</time></trkpt><trkpt lat="45.07388440809918" lon="11.741499018759882"><ele>5.0</ele><time>2026-05-02T08:55:58.001Z</time></trkpt><trkpt lat="45.07390854264643" lon="11.741292543903691"><ele>5.333333333333334</ele><time>2026-05-02T08:55:59.001Z</time></trkpt><trkpt lat="45.073924990872996" lon="11.741069647195031"><ele>5.666666666666667</ele><time>2026-05-02T08:56:00.001Z</time></trkpt><trkpt lat="45.07392641455167" lon="11.740851619912464"><ele>6.0</ele><time>2026-05-02T08:56:01.001Z</time></trkpt><trkpt lat="45.07391880514012" lon="11.740635482093264"><ele>5.666666666666667</ele><time>2026-05-02T08:56:02.001Z</time></trkpt><trkpt lat="45.07390298864051" lon="11.740417603461847"><ele>5.333333333333334</ele><time>2026-05-02T08:56:03.001Z</time></trkpt><trkpt lat="45.07388101745328" lon="11.740194773808655"><ele>5.0</ele><time>2026-05-02T08:56:04.001Z</time></trkpt><trkpt lat="45.073861443895616" lon="11.739979796131891"><ele>5.0</ele><time>2026-05-02T08:56:05.001Z</time></trkpt><trkpt lat="45.07384410080466" lon="11.739774786540362"><ele>5.0</ele><time>2026-05-02T08:56:06.001Z</time></trkpt><trkpt lat="45.07379612490386" lon="11.73957802852616"><ele>5.0</ele><time>2026-05-02T08:56:07.001Z</time></trkpt><trkpt lat="45.073730258552324" lon="11.739399826506371"><ele>5.0</ele><time>2026-05-02T08:56:08.001Z</time></trkpt><trkpt lat="45.07363723756619" lon="11.739236598098866"><ele>4.5</ele><time>2026-05-02T08:56:09.001Z</time></trkpt><trkpt lat="45.07354228528492" lon="11.73908784339812"><ele>4.0</ele><time>2026-05-02T08:56:10.001Z</time></trkpt><trkpt lat="45.073481597822436" lon="11.738918070159226"><ele>3.5</ele><time>2026-05-02T08:56:11.001Z</time></trkpt><trkpt lat="45.07341635726174" lon="11.738743420831875"><ele>3.0</ele><time>2026-05-02T08:56:12.001Z</time></trkpt><trkpt lat="45.07336693944407" lon="11.738554362357002"><ele>3.333333333333333</ele><time>2026-05-02T08:56:13.001Z</time></trkpt><trkpt lat="45.07330466411781" lon="11.738359031418986"><ele>3.6666666666666665</ele><time>2026-05-02T08:56:14.001Z</time></trkpt><trkpt lat="45.07325353767864" lon="11.738141321152389"><ele>4.0</ele><time>2026-05-02T08:56:15.001Z</time></trkpt><trkpt lat="45.0731903713919" lon="11.737926989773515"><ele>4.0</ele><time>2026-05-02T08:56:16.001Z</time></trkpt><trkpt lat="45.07313185367892" lon="11.737702900818313"><ele>4.0</ele><time>2026-05-02T08:56:17.001Z</time></trkpt><trkpt lat="45.07306982524882" lon="11.737469819188695"><ele>4.0</ele><time>2026-05-02T08:56:18.001Z</time></trkpt><trkpt lat="45.073007122243155" lon="11.737233311110407"><ele>4.0</ele><time>2026-05-02T08:56:19.001Z</time></trkpt><trkpt lat="45.07294268032519" lon="11.737000196629833"><ele>4.0</ele><time>2026-05-02T08:56:20.001Z</time></trkpt><trkpt lat="45.07288409416309" lon="11.736792846920613"><ele>4.0</ele><time>2026-05-02T08:56:21.001Z</time></trkpt><trkpt lat="45.07281833330168" lon="11.736604799500304"><ele>4.25</ele><time>2026-05-02T08:56:22.001Z</time></trkpt><trkpt lat="45.072750242723586" lon="11.736431406927531"><ele>4.5</ele><time>2026-05-02T08:56:23.001Z</time></trkpt><trkpt lat="45.07268545279042" lon="11.736275132555498"><ele>4.75</ele><time>2026-05-02T08:56:24.001Z</time></trkpt><trkpt lat="45.07262535031536" lon="11.736132197068782"><ele>5.0</ele><time>2026-05-02T08:56:25.001Z</time></trkpt><trkpt lat="45.07256668230444" lon="11.73599252299301"><ele>5.0</ele><time>2026-05-02T08:56:26.001Z</time></trkpt><trkpt lat="45.07250785338071" lon="11.735855454556651"><ele>5.0</ele><time>2026-05-02T08:56:27.001Z</time></trkpt><trkpt lat="45.07244498345516" lon="11.735708371669354"><ele>5.0</ele><time>2026-05-02T08:56:28.001Z</time></trkpt><trkpt lat="45.07237981890238" lon="11.735544965376102"><ele>5.0</ele><time>2026-05-02T08:56:29.001Z</time></trkpt><trkpt lat="45.07231616765318" lon="11.73535876000817"><ele>5.333333333333334</ele><time>2026-05-02T08:56:30.001Z</time></trkpt><trkpt lat="45.07225510865963" lon="11.735159514064895"><ele>5.666666666666667</ele><time>2026-05-02T08:56:31.001Z</time></trkpt><trkpt lat="45.07220301695444" lon="11.73495657523507"><ele>6.0</ele><time>2026-05-02T08:56:32.001Z</time></trkpt><trkpt lat="45.072155331537246" lon="11.734750086861222"><ele>6.0</ele><time>2026-05-02T08:56:33.001Z</time></trkpt><trkpt lat="45.0721103637234" lon="11.734540792268213"><ele>6.0</ele><time>2026-05-02T08:56:34.001Z</time></trkpt><trkpt lat="45.072064885416616" lon="11.734346204476925"><ele>6.0</ele><time>2026-05-02T08:56:35.001Z</time></trkpt><trkpt lat="45.07202617841704" lon="11.734164515251475"><ele>6.0</ele><time>2026-05-02T08:56:36.001Z</time></trkpt><trkpt lat="45.07199204142567" lon="11.733997852861348"><ele>6.0</ele><time>2026-05-02T08:56:37.001Z</time></trkpt><trkpt lat="45.07196737052619" lon="11.73382541851361"><ele>6.0</ele><time>2026-05-02T08:56:38.001Z</time></trkpt><trkpt lat="45.07194567738447" lon="11.733658339490528"><ele>6.0</ele><time>2026-05-02T08:56:39.001Z</time></trkpt><trkpt lat="45.07190961953702" lon="11.733496007977626"><ele>6.0</ele><time>2026-05-02T08:56:40.001Z</time></trkpt><trkpt lat="45.071876317839795" lon="11.733332356190699"><ele>6.0</ele><time>2026-05-02T08:56:41.001Z</time></trkpt><trkpt lat="45.0718959264547" lon="11.733428305840846"><ele>6.0</ele><time>2026-05-02T08:56:42.001Z</time></trkpt><trkpt lat="45.07211408257087" lon="11.73347042333875"><ele>6.0</ele><time>2026-05-02T08:56:44.001Z</time></trkpt><trkpt lat="45.07220935899673" lon="11.733544778378782"><ele>6.0</ele><time>2026-05-02T08:56:45.001Z</time></trkpt><trkpt lat="45.0723145076685" lon="11.733617629141156"><ele>6.0</ele><time>2026-05-02T08:56:46.001Z</time></trkpt><trkpt lat="45.072418798943936" lon="11.73370210855679"><ele>6.0</ele><time>2026-05-02T08:56:47.001Z</time></trkpt><trkpt lat="45.07253248426483" lon="11.73379359937885"><ele>6.0</ele><time>2026-05-02T08:56:48.001Z</time></trkpt><trkpt lat="45.072666866481654" lon="11.733892268207189"><ele>6.0</ele><time>2026-05-02T08:56:49.001Z</time></trkpt><trkpt lat="45.07281782199504" lon="11.73399567500652"><ele>5.666666666666667</ele><time>2026-05-02T08:56:50.001Z</time></trkpt><trkpt lat="45.07298891169016" lon="11.734033861851675"><ele>5.333333333333334</ele><time>2026-05-02T08:56:51.001Z</time></trkpt><trkpt lat="45.07315458533135" lon="11.734060726151895"><ele>5.0</ele><time>2026-05-02T08:56:52.001Z</time></trkpt><trkpt lat="45.073321514507874" lon="11.7340576202833"><ele>4.25</ele><time>2026-05-02T08:56:53.001Z</time></trkpt><trkpt lat="45.073477029494754" lon="11.734024632489223"><ele>3.5</ele><time>2026-05-02T08:56:54.001Z</time></trkpt><trkpt lat="45.07361880474954" lon="11.733987238639935"><ele>2.75</ele><time>2026-05-02T08:56:55.001Z</time></trkpt><trkpt lat="45.07375513082672" lon="11.733974816051123"><ele>2.0</ele><time>2026-05-02T08:56:56.001Z</time></trkpt><trkpt lat="45.0738949273904" lon="11.734003824651962"><ele>2.0</ele><time>2026-05-02T08:56:57.001Z</time></trkpt><trkpt lat="45.07404402419538" lon="11.734042188189566"><ele>2.0</ele><time>2026-05-02T08:56:58.001Z</time></trkpt><trkpt lat="45.07419517720843" lon="11.734093779849035"><ele>2.0</ele><time>2026-05-02T08:56:59.001Z</time></trkpt><trkpt lat="45.07434577705628" lon="11.734170365900859"><ele>2.0</ele><time>2026-05-02T08:57:00.001Z</time></trkpt><trkpt lat="45.074499659199375" lon="11.734258556536311"><ele>2.0</ele><time>2026-05-02T08:57:01.001Z</time></trkpt><trkpt lat="45.074646063750585" lon="11.734346258262962"><ele>2.0</ele><time>2026-05-02T08:57:02.001Z</time></trkpt><trkpt lat="45.074791104176796" lon="11.734427477706028"><ele>2.333333333333333</ele><time>2026-05-02T08:57:03.001Z</time></trkpt><trkpt lat="45.07493703751165" lon="11.734511054567964"><ele>2.6666666666666665</ele><time>2026-05-02T08:57:04.001Z</time></trkpt><trkpt lat="45.07508382284288" lon="11.734598233020012"><ele>3.0</ele><time>2026-05-02T08:57:05.001Z</time></trkpt><trkpt lat="45.07523025000216" lon="11.734690033929072"><ele>3.0</ele><time>2026-05-02T08:57:06.001Z</time></trkpt><trkpt lat="45.07537517482652" lon="11.734780845854424"><ele>3.0</ele><time>2026-05-02T08:57:07.001Z</time></trkpt><trkpt lat="45.07552176361515" lon="11.734875552305775"><ele>3.0</ele><time>2026-05-02T08:57:08.001Z</time></trkpt><trkpt lat="45.07566103740687" lon="11.73497299861518"><ele>2.6666666666666665</ele><time>2026-05-02T08:57:09.001Z</time></trkpt><trkpt lat="45.075794486498914" lon="11.73507616469833"><ele>2.333333333333333</ele><time>2026-05-02T08:57:10.001Z</time></trkpt><trkpt lat="45.07592783537194" lon="11.73517890203791"><ele>2.0</ele><time>2026-05-02T08:57:11.001Z</time></trkpt><trkpt lat="45.07605825242426" lon="11.7352803025535"><ele>2.0</ele><time>2026-05-02T08:57:12.001Z</time></trkpt><trkpt lat="45.07618793039083" lon="11.7353816749358"><ele>2.0</ele><time>2026-05-02T08:57:13.001Z</time></trkpt><trkpt lat="45.07632070027352" lon="11.735486686393552"><ele>2.0</ele><time>2026-05-02T08:57:14.001Z</time></trkpt><trkpt lat="45.076436881570274" lon="11.735590198936238"><ele>2.0</ele><time>2026-05-02T08:57:15.001Z</time></trkpt><trkpt lat="45.07657678608742" lon="11.735699921866386"><ele>2.333333333333333</ele><time>2026-05-02T08:57:16.001Z</time></trkpt><trkpt lat="45.07671585798203" lon="11.735802229678974"><ele>2.6666666666666665</ele><time>2026-05-02T08:57:17.001Z</time></trkpt><trkpt lat="45.076859826183636" lon="11.735906061884577"><ele>3.0</ele><time>2026-05-02T08:57:18.001Z</time></trkpt><trkpt lat="45.07701748132935" lon="11.73600742142009"><ele>3.0</ele><time>2026-05-02T08:57:19.001Z</time></trkpt><trkpt lat="45.07718227931428" lon="11.736101708582753"><ele>3.0</ele><time>2026-05-02T08:57:20.001Z</time></trkpt><trkpt lat="45.07733293555222" lon="11.736188153539407"><ele>3.0</ele><time>2026-05-02T08:57:21.001Z</time></trkpt><trkpt lat="45.077469080514796" lon="11.736265492686561"><ele>3.25</ele><time>2026-05-02T08:57:22.001Z</time></trkpt><trkpt lat="45.07760161818279" lon="11.736335385926395"><ele>3.5</ele><time>2026-05-02T08:57:23.001Z</time></trkpt><trkpt lat="45.07772994855562" lon="11.736399734804097"><ele>3.75</ele><time>2026-05-02T08:57:24.001Z</time></trkpt><trkpt lat="45.077854817562546" lon="11.736463478164755"><ele>4.0</ele><time>2026-05-02T08:57:25.001Z</time></trkpt><trkpt lat="45.077977656370244" lon="11.73653328620586"><ele>4.0</ele><time>2026-05-02T08:57:26.001Z</time></trkpt><trkpt lat="45.07810749000511" lon="11.736603470336336"><ele>4.0</ele><time>2026-05-02T08:57:27.001Z</time></trkpt><trkpt lat="45.07824405640323" lon="11.73667369938241"><ele>4.0</ele><time>2026-05-02T08:57:28.001Z</time></trkpt><trkpt lat="45.078385878371535" lon="11.736743819944435"><ele>4.0</ele><time>2026-05-02T08:57:29.001Z</time></trkpt><trkpt lat="45.07852214488123" lon="11.73680635602372"><ele>3.75</ele><time>2026-05-02T08:57:30.001Z</time></trkpt><trkpt lat="45.078647806366256" lon="11.736873171763625"><ele>3.5</ele><time>2026-05-02T08:57:31.001Z</time></trkpt><trkpt lat="45.078762576396656" lon="11.736921495545994"><ele>3.25</ele><time>2026-05-02T08:57:32.001Z</time></trkpt><trkpt lat="45.07886651328882" lon="11.736962323176936"><ele>3.0</ele><time>2026-05-02T08:57:33.001Z</time></trkpt><trkpt lat="45.0789589771027" lon="11.737000017937783"><ele>3.0</ele><time>2026-05-02T08:57:34.001Z</time></trkpt><trkpt lat="45.079041061877234" lon="11.737033209445888"><ele>3.0</ele><time>2026-05-02T08:57:35.001Z</time></trkpt><trkpt lat="45.07911166741448" lon="11.737072095617245"><ele>3.0</ele><time>2026-05-02T08:57:36.001Z</time></trkpt><trkpt lat="45.07920458698694" lon="11.73712651238673"><ele>3.0</ele><time>2026-05-02T08:57:38.001Z</time></trkpt><trkpt lat="45.079259566906416" lon="11.737173256597446"><ele>3.0</ele><time>2026-05-02T08:57:40.001Z</time></trkpt><trkpt lat="45.07933849456236" lon="11.7372454089743"><ele>3.0</ele><time>2026-05-02T08:57:46.001Z</time></trkpt><trkpt lat="45.0794062148483" lon="11.73729965915889"><ele>3.0</ele><time>2026-05-02T08:57:47.001Z</time></trkpt><trkpt lat="45.07948678602438" lon="11.737339669208337"><ele>3.0</ele><time>2026-05-02T08:57:48.001Z</time></trkpt><trkpt lat="45.079574591869815" lon="11.737390040445685"><ele>3.0</ele><time>2026-05-02T08:57:49.001Z</time></trkpt><trkpt lat="45.07966990987521" lon="11.73744688637491"><ele>3.0</ele><time>2026-05-02T08:57:50.001Z</time></trkpt><trkpt lat="45.079772036321984" lon="11.737516499104975"><ele>3.0</ele><time>2026-05-02T08:57:51.001Z</time></trkpt><trkpt lat="45.0798773289982" lon="11.737581194778278"><ele>3.25</ele><time>2026-05-02T08:57:52.001Z</time></trkpt><trkpt lat="45.07998888820349" lon="11.737602284716637"><ele>3.5</ele><time>2026-05-02T08:57:53.001Z</time></trkpt><trkpt lat="45.0801147936914" lon="11.737584892135425"><ele>3.75</ele><time>2026-05-02T08:57:54.001Z</time></trkpt><trkpt lat="45.080252061736516" lon="11.737545559074437"><ele>4.0</ele><time>2026-05-02T08:57:55.001Z</time></trkpt><trkpt lat="45.08039965309546" lon="11.737507149871442"><ele>4.0</ele><time>2026-05-02T08:57:56.001Z</time></trkpt><trkpt lat="45.08056059723558" lon="11.73748015783869"><ele>4.0</ele><time>2026-05-02T08:57:57.001Z</time></trkpt><trkpt lat="45.0807267842395" lon="11.737439392787937"><ele>4.0</ele><time>2026-05-02T08:57:58.001Z</time></trkpt><trkpt lat="45.08090814874299" lon="11.73739431966415"><ele>4.0</ele><time>2026-05-02T08:57:59.001Z</time></trkpt><trkpt lat="45.081102680196345" lon="11.737352527167005"><ele>4.0</ele><time>2026-05-02T08:58:00.001Z</time></trkpt><trkpt lat="45.08131384481724" lon="11.737304550033205"><ele>4.0</ele><time>2026-05-02T08:58:01.001Z</time></trkpt><trkpt lat="45.08154192950503" lon="11.737248050685388"><ele>3.5</ele><time>2026-05-02T08:58:02.001Z</time></trkpt><trkpt lat="45.08178370695128" lon="11.737184197198877"><ele>3.0</ele><time>2026-05-02T08:58:03.001Z</time></trkpt><trkpt lat="45.082027895178385" lon="11.7371090356317"><ele>3.0</ele><time>2026-05-02T08:58:04.001Z</time></trkpt><trkpt lat="45.082271409515585" lon="11.737035171336101"><ele>3.0</ele><time>2026-05-02T08:58:05.001Z</time></trkpt><trkpt lat="45.08249021960326" lon="11.73696538238983"><ele>3.0</ele><time>2026-05-02T08:58:06.001Z</time></trkpt><trkpt lat="45.08268540761346" lon="11.736912864926646"><ele>3.0</ele><time>2026-05-02T08:58:07.001Z</time></trkpt><trkpt lat="45.082870186786224" lon="11.736871505913943"><ele>3.0</ele><time>2026-05-02T08:58:08.001Z</time></trkpt><trkpt lat="45.08305136038438" lon="11.736853860397504"><ele>3.0</ele><time>2026-05-02T08:58:09.001Z</time></trkpt><trkpt lat="45.08323659074401" lon="11.736899277250357"><ele>3.0</ele><time>2026-05-02T08:58:10.001Z</time></trkpt><trkpt lat="45.083437406899456" lon="11.736914479412452"><ele>3.0</ele><time>2026-05-02T08:58:11.001Z</time></trkpt><trkpt lat="45.083653783342015" lon="11.736949744479576"><ele>3.5</ele><time>2026-05-02T08:58:12.001Z</time></trkpt><trkpt lat="45.083889918110195" lon="11.736977770428284"><ele>4.0</ele><time>2026-05-02T08:58:13.001Z</time></trkpt><trkpt lat="45.084140782041395" lon="11.737006444255117"><ele>4.0</ele><time>2026-05-02T08:58:14.001Z</time></trkpt><trkpt lat="45.08438394443638" lon="11.737032926513235"><ele>4.0</ele><time>2026-05-02T08:58:15.001Z</time></trkpt><trkpt lat="45.08459681145005" lon="11.737056018923074"><ele>4.0</ele><time>2026-05-02T08:58:16.001Z</time></trkpt><trkpt lat="45.084796069042305" lon="11.737081469301533"><ele>4.0</ele><time>2026-05-02T08:58:17.001Z</time></trkpt><trkpt lat="45.08498441195032" lon="11.737147741006948"><ele>4.0</ele><time>2026-05-02T08:58:18.001Z</time></trkpt><trkpt lat="45.08516485285627" lon="11.73725483206885"><ele>3.6666666666666665</ele><time>2026-05-02T08:58:19.001Z</time></trkpt><trkpt lat="45.08534947306081" lon="11.737387093425125"><ele>3.333333333333333</ele><time>2026-05-02T08:58:20.001Z</time></trkpt><trkpt lat="45.085548724385085" lon="11.737528527031397"><ele>3.0</ele><time>2026-05-02T08:58:21.001Z</time></trkpt><trkpt lat="45.085755611546865" lon="11.737709868300486"><ele>2.5</ele><time>2026-05-02T08:58:22.001Z</time></trkpt><trkpt lat="45.08597669453554" lon="11.737890306219963"><ele>2.0</ele><time>2026-05-02T08:58:23.001Z</time></trkpt><trkpt lat="45.08619635828773" lon="11.738065508862006"><ele>2.0</ele><time>2026-05-02T08:58:24.001Z</time></trkpt><trkpt lat="45.08639696046271" lon="11.738223504956869"><ele>2.0</ele><time>2026-05-02T08:58:25.001Z</time></trkpt><trkpt lat="45.08656572784432" lon="11.738365631010165"><ele>2.0</ele><time>2026-05-02T08:58:26.001Z</time></trkpt><trkpt lat="45.08671335341979" lon="11.738484165717361"><ele>2.333333333333333</ele><time>2026-05-02T08:58:27.001Z</time></trkpt><trkpt lat="45.08685592741209" lon="11.738596295370433"><ele>2.6666666666666665</ele><time>2026-05-02T08:58:28.001Z</time></trkpt><trkpt lat="45.08699401382774" lon="11.738696093811589"><ele>3.0</ele><time>2026-05-02T08:58:29.001Z</time></trkpt><trkpt lat="45.087136185319636" lon="11.738772536112737"><ele>3.0</ele><time>2026-05-02T08:58:30.001Z</time></trkpt><trkpt lat="45.08728685527984" lon="11.738794726137982"><ele>3.0</ele><time>2026-05-02T08:58:31.001Z</time></trkpt><trkpt lat="45.08744684187376" lon="11.738752013557074"><ele>3.0</ele><time>2026-05-02T08:58:32.001Z</time></trkpt><trkpt lat="45.08761070223382" lon="11.738674970491077"><ele>2.6666666666666665</ele><time>2026-05-02T08:58:33.001Z</time></trkpt><trkpt lat="45.0877803635556" lon="11.73859412019831"><ele>2.333333333333333</ele><time>2026-05-02T08:58:34.001Z</time></trkpt><trkpt lat="45.087946347750616" lon="11.738501246587166"><ele>2.0</ele><time>2026-05-02T08:58:35.001Z</time></trkpt><trkpt lat="45.08809941203251" lon="11.738364472431622"><ele>2.0</ele><time>2026-05-02T08:58:36.001Z</time></trkpt><trkpt lat="45.088236747014214" lon="11.73817064228763"><ele>2.0</ele><time>2026-05-02T08:58:37.001Z</time></trkpt><trkpt lat="45.08835561506425" lon="11.737947484703861"><ele>2.0</ele><time>2026-05-02T08:58:38.001Z</time></trkpt><trkpt lat="45.08847350681697" lon="11.737706833819502"><ele>2.0</ele><time>2026-05-02T08:58:39.001Z</time></trkpt><trkpt lat="45.08859923114561" lon="11.737471510559448"><ele>2.0</ele><time>2026-05-02T08:58:40.001Z</time></trkpt><trkpt lat="45.08873874328154" lon="11.737227787272941"><ele>2.0</ele><time>2026-05-02T08:58:41.001Z</time></trkpt><trkpt lat="45.08888158356592" lon="11.736974342713141"><ele>2.5</ele><time>2026-05-02T08:58:42.001Z</time></trkpt><trkpt lat="45.08902734340077" lon="11.73671207504954"><ele>3.0</ele><time>2026-05-02T08:58:43.001Z</time></trkpt><trkpt lat="45.08917958290445" lon="11.736435340602842"><ele>3.0</ele><time>2026-05-02T08:58:44.001Z</time></trkpt><trkpt lat="45.08932655805409" lon="11.736157180139717"><ele>3.0</ele><time>2026-05-02T08:58:45.001Z</time></trkpt><trkpt lat="45.089457130348954" lon="11.735877434233688"><ele>3.0</ele><time>2026-05-02T08:58:46.001Z</time></trkpt><trkpt lat="45.08957855814173" lon="11.735588442557358"><ele>3.0</ele><time>2026-05-02T08:58:47.001Z</time></trkpt><trkpt lat="45.08969007985541" lon="11.735285670006379"><ele>3.0</ele><time>2026-05-02T08:58:48.001Z</time></trkpt><trkpt lat="45.089798583675346" lon="11.734963318307615"><ele>3.0</ele><time>2026-05-02T08:58:49.001Z</time></trkpt><trkpt lat="45.08991118994406" lon="11.734641453612433"><ele>3.5</ele><time>2026-05-02T08:58:50.001Z</time></trkpt><trkpt lat="45.09001841737456" lon="11.734337617688372"><ele>4.0</ele><time>2026-05-02T08:58:51.001Z</time></trkpt><trkpt lat="45.09011680972033" lon="11.734064521743814"><ele>4.0</ele><time>2026-05-02T08:58:52.001Z</time></trkpt><trkpt lat="45.09020938036726" lon="11.733809390393821"><ele>4.0</ele><time>2026-05-02T08:58:53.001Z</time></trkpt><trkpt lat="45.09029500689578" lon="11.733578062348927"><ele>4.0</ele><time>2026-05-02T08:58:54.001Z</time></trkpt><trkpt lat="45.09037630768716" lon="11.73335736306794"><ele>3.333333333333333</ele><time>2026-05-02T08:58:55.001Z</time></trkpt><trkpt lat="45.090451105489514" lon="11.73314547019244"><ele>2.6666666666666665</ele><time>2026-05-02T08:58:56.001Z</time></trkpt><trkpt lat="45.09052171818832" lon="11.7329410605986"><ele>2.0</ele><time>2026-05-02T08:58:57.001Z</time></trkpt><trkpt lat="45.090586719666845" lon="11.732762448824698"><ele>2.25</ele><time>2026-05-02T08:58:58.001Z</time></trkpt><trkpt lat="45.090644836395754" lon="11.732601328228064"><ele>2.5</ele><time>2026-05-02T08:58:59.001Z</time></trkpt><trkpt lat="45.09069924657098" lon="11.73244305592147"><ele>2.75</ele><time>2026-05-02T08:59:00.001Z</time></trkpt><trkpt lat="45.09076377368447" lon="11.732286755461269"><ele>3.0</ele><time>2026-05-02T08:59:01.001Z</time></trkpt><trkpt lat="45.090847791720904" lon="11.73212746542722"><ele>3.0</ele><time>2026-05-02T08:59:02.001Z</time></trkpt><trkpt lat="45.09094930222481" lon="11.731964641250894"><ele>3.0</ele><time>2026-05-02T08:59:03.001Z</time></trkpt><trkpt lat="45.09106714279595" lon="11.731773798478336"><ele>3.0</ele><time>2026-05-02T08:59:04.001Z</time></trkpt><trkpt lat="45.091206179478704" lon="11.731581071432567"><ele>3.0</ele><time>2026-05-02T08:59:05.001Z</time></trkpt><trkpt lat="45.09136831205398" lon="11.731377889085008"><ele>3.0</ele><time>2026-05-02T08:59:06.001Z</time></trkpt><trkpt lat="45.0915565246603" lon="11.731180792401013"><ele>3.0</ele><time>2026-05-02T08:59:07.001Z</time></trkpt><trkpt lat="45.09174219933296" lon="11.731009564914094"><ele>3.0</ele><time>2026-05-02T08:59:08.001Z</time></trkpt><trkpt lat="45.09193150629121" lon="11.73090766086804"><ele>3.0</ele><time>2026-05-02T08:59:09.001Z</time></trkpt><trkpt lat="45.0922741661827" lon="11.730673252602738"><ele>3.333333333333333</ele><time>2026-05-02T08:59:11.001Z</time></trkpt><trkpt lat="45.09244942634745" lon="11.730567192025843"><ele>3.6666666666666665</ele><time>2026-05-02T08:59:12.001Z</time></trkpt><trkpt lat="45.09262781359911" lon="11.730453081436975"><ele>4.0</ele><time>2026-05-02T08:59:13.001Z</time></trkpt><trkpt lat="45.092811321613944" lon="11.730340011129618"><ele>4.0</ele><time>2026-05-02T08:59:14.001Z</time></trkpt><trkpt lat="45.092983646960484" lon="11.730227807679151"><ele>4.0</ele><time>2026-05-02T08:59:15.001Z</time></trkpt><trkpt lat="45.09314802821168" lon="11.730127399117803"><ele>4.0</ele><time>2026-05-02T08:59:16.001Z</time></trkpt><trkpt lat="45.09329547755987" lon="11.7300398994538"><ele>4.25</ele><time>2026-05-02T08:59:17.001Z</time></trkpt><trkpt lat="45.09342697362952" lon="11.729956734938192"><ele>4.5</ele><time>2026-05-02T08:59:18.001Z</time></trkpt><trkpt lat="45.09354339832543" lon="11.72988591765204"><ele>4.75</ele><time>2026-05-02T08:59:19.001Z</time></trkpt><trkpt lat="45.09365172554197" lon="11.729819852695497"><ele>5.0</ele><time>2026-05-02T08:59:20.001Z</time></trkpt><trkpt lat="45.09374846309965" lon="11.72976004314543"><ele>5.0</ele><time>2026-05-02T08:59:21.001Z</time></trkpt><trkpt lat="45.09383727281335" lon="11.729702906578197"><ele>5.0</ele><time>2026-05-02T08:59:22.001Z</time></trkpt><trkpt lat="45.0939178491883" lon="11.729648145829286"><ele>5.0</ele><time>2026-05-02T08:59:23.001Z</time></trkpt><trkpt lat="45.09399521357522" lon="11.729601106711078"><ele>5.0</ele><time>2026-05-02T08:59:24.001Z</time></trkpt><trkpt lat="45.094064278198466" lon="11.729568757987842"><ele>5.0</ele><time>2026-05-02T08:59:25.001Z</time></trkpt><trkpt lat="45.09416424122257" lon="11.729555958517622"><ele>5.0</ele><time>2026-05-02T08:59:27.001Z</time></trkpt><trkpt lat="45.09423733179848" lon="11.729565656784434"><ele>5.0</ele><time>2026-05-02T08:59:29.001Z</time></trkpt><trkpt lat="45.094346758306486" lon="11.72956691711306"><ele>5.0</ele><time>2026-05-02T08:59:31.001Z</time></trkpt><trkpt lat="45.09442187317521" lon="11.729573145669844"><ele>5.0</ele><time>2026-05-02T08:59:32.001Z</time></trkpt><trkpt lat="45.09449726612263" lon="11.72958920029858"><ele>5.0</ele><time>2026-05-02T08:59:33.001Z</time></trkpt><trkpt lat="45.0945607789421" lon="11.729609244761292"><ele>5.0</ele><time>2026-05-02T08:59:34.001Z</time></trkpt><trkpt lat="45.09463381050305" lon="11.72963379911869"><ele>5.0</ele><time>2026-05-02T08:59:36.001Z</time></trkpt><trkpt lat="45.094700644520366" lon="11.72965955790958"><ele>5.0</ele><time>2026-05-02T08:59:38.001Z</time></trkpt><trkpt lat="45.09481725039858" lon="11.729449329854749"><ele>5.0</ele><time>2026-05-02T08:59:40.001Z</time></trkpt><trkpt lat="45.0948726609224" lon="11.729302410618592"><ele>5.0</ele><time>2026-05-02T08:59:41.001Z</time></trkpt><trkpt lat="45.094945155997706" lon="11.729162302634698"><ele>5.0</ele><time>2026-05-02T08:59:42.001Z</time></trkpt><trkpt lat="45.09500144692173" lon="11.72903145794583"><ele>5.333333333333334</ele><time>2026-05-02T08:59:43.001Z</time></trkpt><trkpt lat="45.0950529068251" lon="11.728909778458865"><ele>5.666666666666667</ele><time>2026-05-02T08:59:44.001Z</time></trkpt><trkpt lat="45.09509418301498" lon="11.728788718895503"><ele>6.0</ele><time>2026-05-02T08:59:45.001Z</time></trkpt><trkpt lat="45.09513596028885" lon="11.728676115905701"><ele>6.333333333333334</ele><time>2026-05-02T08:59:46.001Z</time></trkpt><trkpt lat="45.09517397400353" lon="11.72858780493773"><ele>6.666666666666667</ele><time>2026-05-02T08:59:47.001Z</time></trkpt><trkpt lat="45.09521068738729" lon="11.728509745868024"><ele>7.0</ele><time>2026-05-02T08:59:48.001Z</time></trkpt><trkpt lat="45.095270574570335" lon="11.72836298557155"><ele>7.000000000000001</ele><time>2026-05-02T08:59:50.001Z</time></trkpt><trkpt lat="45.095315871061494" lon="11.728264494780552"><ele>7.0</ele><time>2026-05-02T08:59:51.001Z</time></trkpt><trkpt lat="45.09537450455532" lon="11.728138008117197"><ele>7.0</ele><time>2026-05-02T08:59:52.001Z</time></trkpt><trkpt lat="45.09542319958909" lon="11.72801829464576"><ele>7.0</ele><time>2026-05-02T08:59:53.001Z</time></trkpt><trkpt lat="45.0954597437814" lon="11.7279214975092"><ele>7.000000000000001</ele><time>2026-05-02T08:59:54.001Z</time></trkpt><trkpt lat="45.09546311718184" lon="11.727828776795025"><ele>7.0</ele><time>2026-05-02T08:59:55.001Z</time></trkpt><trkpt lat="45.0954287813124" lon="11.72771775402917"><ele>6.75</ele><time>2026-05-02T08:59:56.001Z</time></trkpt><trkpt lat="45.09537133513043" lon="11.727575100693876"><ele>6.5</ele><time>2026-05-02T08:59:57.001Z</time></trkpt><trkpt lat="45.095307836322085" lon="11.727400389069857"><ele>6.25</ele><time>2026-05-02T08:59:58.001Z</time></trkpt><trkpt lat="45.09524794241153" lon="11.727213331361286"><ele>6.0</ele><time>2026-05-02T08:59:59.001Z</time></trkpt><trkpt lat="45.0951839024733" lon="11.72702862887056"><ele>5.75</ele><time>2026-05-02T09:00:00.001Z</time></trkpt><trkpt lat="45.095121036422356" lon="11.726870258899954"><ele>5.5</ele><time>2026-05-02T09:00:01.001Z</time></trkpt><trkpt lat="45.095033423103324" lon="11.726714975455668"><ele>5.25</ele><time>2026-05-02T09:00:02.001Z</time></trkpt><trkpt lat="45.094918779468365" lon="11.726561331176098"><ele>5.0</ele><time>2026-05-02T09:00:03.001Z</time></trkpt><trkpt lat="45.09477717679845" lon="11.726386351984493"><ele>5.0</ele><time>2026-05-02T09:00:04.001Z</time></trkpt><trkpt lat="45.09463024510111" lon="11.726200666353828"><ele>5.0</ele><time>2026-05-02T09:00:05.001Z</time></trkpt><trkpt lat="45.094506820419554" lon="11.726035492046357"><ele>5.0</ele><time>2026-05-02T09:00:06.001Z</time></trkpt><trkpt lat="45.094396591895645" lon="11.725891480028896"><ele>5.0</ele><time>2026-05-02T09:00:07.001Z</time></trkpt><trkpt lat="45.09430098938237" lon="11.725755775288961"><ele>5.0</ele><time>2026-05-02T09:00:08.001Z</time></trkpt><trkpt lat="45.094229578674195" lon="11.725598803299436"><ele>5.0</ele><time>2026-05-02T09:00:09.001Z</time></trkpt><trkpt lat="45.09415997132699" lon="11.725426319203754"><ele>5.0</ele><time>2026-05-02T09:00:10.001Z</time></trkpt><trkpt lat="45.094074614411525" lon="11.72524797422448"><ele>5.333333333333334</ele><time>2026-05-02T09:00:11.001Z</time></trkpt><trkpt lat="45.09399395882407" lon="11.725049709047758"><ele>5.666666666666667</ele><time>2026-05-02T09:00:12.001Z</time></trkpt><trkpt lat="45.093915813853485" lon="11.724851988002035"><ele>6.0</ele><time>2026-05-02T09:00:13.001Z</time></trkpt><trkpt lat="45.09383244802875" lon="11.724652710140633"><ele>6.0</ele><time>2026-05-02T09:00:14.001Z</time></trkpt><trkpt lat="45.09376644363809" lon="11.724434469026441"><ele>6.0</ele><time>2026-05-02T09:00:15.001Z</time></trkpt><trkpt lat="45.093671820238406" lon="11.724239931869281"><ele>6.0</ele><time>2026-05-02T09:00:16.001Z</time></trkpt><trkpt lat="45.09359072616118" lon="11.724033291918726"><ele>5.666666666666667</ele><time>2026-05-02T09:00:17.001Z</time></trkpt><trkpt lat="45.09349433173777" lon="11.723804620529586"><ele>5.333333333333334</ele><time>2026-05-02T09:00:18.001Z</time></trkpt><trkpt lat="45.09339591308727" lon="11.72358406883713"><ele>5.0</ele><time>2026-05-02T09:00:19.001Z</time></trkpt><trkpt lat="45.093310965831606" lon="11.72338582813251"><ele>4.75</ele><time>2026-05-02T09:00:20.001Z</time></trkpt><trkpt lat="45.093232039110404" lon="11.723201536868508"><ele>4.5</ele><time>2026-05-02T09:00:21.001Z</time></trkpt><trkpt lat="45.09316115966909" lon="11.723033205212262"><ele>4.25</ele><time>2026-05-02T09:00:22.001Z</time></trkpt><trkpt lat="45.093089781994706" lon="11.722872670204032"><ele>4.0</ele><time>2026-05-02T09:00:23.001Z</time></trkpt><trkpt lat="45.09300035303439" lon="11.72273424693043"><ele>4.333333333333333</ele><time>2026-05-02T09:00:24.001Z</time></trkpt><trkpt lat="45.09287836028319" lon="11.722612097129174"><ele>4.666666666666667</ele><time>2026-05-02T09:00:25.001Z</time></trkpt><trkpt lat="45.09272929088991" lon="11.722495490936168"><ele>5.0</ele><time>2026-05-02T09:00:26.001Z</time></trkpt><trkpt lat="45.09256876059571" lon="11.72235490362561"><ele>4.666666666666667</ele><time>2026-05-02T09:00:27.001Z</time></trkpt><trkpt lat="45.09238568456576" lon="11.722216629984985"><ele>4.333333333333333</ele><time>2026-05-02T09:00:28.001Z</time></trkpt><trkpt lat="45.09217668075246" lon="11.722058770488223"><ele>4.0</ele><time>2026-05-02T09:00:29.001Z</time></trkpt><trkpt lat="45.09193766365103" lon="11.721900843184237"><ele>4.0</ele><time>2026-05-02T09:00:30.001Z</time></trkpt><trkpt lat="45.09172792774178" lon="11.721731433743253"><ele>4.0</ele><time>2026-05-02T09:00:31.001Z</time></trkpt><trkpt lat="45.09153642401304" lon="11.721592560254967"><ele>4.0</ele><time>2026-05-02T09:00:32.001Z</time></trkpt><trkpt lat="45.091370409365204" lon="11.721466184255403"><ele>4.0</ele><time>2026-05-02T09:00:33.001Z</time></trkpt><trkpt lat="45.0912218266542" lon="11.721357707479072"><ele>4.0</ele><time>2026-05-02T09:00:34.001Z</time></trkpt><trkpt lat="45.0910920319944" lon="11.721263626688943"><ele>4.0</ele><time>2026-05-02T09:00:35.001Z</time></trkpt><trkpt lat="45.09098127377545" lon="11.721185053051892"><ele>4.0</ele><time>2026-05-02T09:00:36.001Z</time></trkpt><trkpt lat="45.090892035185085" lon="11.721127103701612"><ele>4.0</ele><time>2026-05-02T09:00:37.001Z</time></trkpt><trkpt lat="45.09081438273165" lon="11.721088872768876"><ele>4.0</ele><time>2026-05-02T09:00:38.001Z</time></trkpt><trkpt lat="45.09074886746242" lon="11.721075310569837"><ele>4.0</ele><time>2026-05-02T09:00:39.001Z</time></trkpt><trkpt lat="45.09066086366673" lon="11.72103525899144"><ele>4.0</ele><time>2026-05-02T09:00:41.001Z</time></trkpt><trkpt lat="45.090652851012585" lon="11.72085924516347"><ele>4.0</ele><time>2026-05-02T09:00:43.001Z</time></trkpt><trkpt lat="45.09067499699254" lon="11.720724381396668"><ele>4.0</ele><time>2026-05-02T09:00:44.001Z</time></trkpt><trkpt lat="45.090694869588475" lon="11.720561038233186"><ele>4.0</ele><time>2026-05-02T09:00:45.001Z</time></trkpt><trkpt lat="45.09070968431036" lon="11.720382850551214"><ele>3.6666666666666665</ele><time>2026-05-02T09:00:46.001Z</time></trkpt><trkpt lat="45.09072968617133" lon="11.720188442741529"><ele>3.333333333333333</ele><time>2026-05-02T09:00:47.001Z</time></trkpt><trkpt lat="45.090755858631425" lon="11.71997391629025"><ele>3.0</ele><time>2026-05-02T09:00:48.001Z</time></trkpt><trkpt lat="45.09079366514705" lon="11.719752542526889"><ele>3.0</ele><time>2026-05-02T09:00:49.001Z</time></trkpt><trkpt lat="45.0908537122329" lon="11.719531611704474"><ele>3.0</ele><time>2026-05-02T09:00:50.001Z</time></trkpt><trkpt lat="45.090929107316725" lon="11.719304611755806"><ele>3.0</ele><time>2026-05-02T09:00:51.001Z</time></trkpt><trkpt lat="45.09099965762584" lon="11.71907361077164"><ele>3.0</ele><time>2026-05-02T09:00:52.001Z</time></trkpt><trkpt lat="45.09104944666599" lon="11.718837354873763"><ele>3.0</ele><time>2026-05-02T09:00:53.001Z</time></trkpt><trkpt lat="45.09108151098464" lon="11.718593306018429"><ele>3.0</ele><time>2026-05-02T09:00:54.001Z</time></trkpt><trkpt lat="45.09108543726759" lon="11.718339261395474"><ele>3.333333333333333</ele><time>2026-05-02T09:00:55.001Z</time></trkpt><trkpt lat="45.09108989248827" lon="11.718093519307777"><ele>3.6666666666666665</ele><time>2026-05-02T09:00:56.001Z</time></trkpt><trkpt lat="45.091086269830235" lon="11.717838221768307"><ele>4.0</ele><time>2026-05-02T09:00:57.001Z</time></trkpt><trkpt lat="45.09107739935478" lon="11.71759294156077"><ele>4.0</ele><time>2026-05-02T09:00:58.001Z</time></trkpt><trkpt lat="45.09106272741518" lon="11.71734672414086"><ele>4.0</ele><time>2026-05-02T09:00:59.001Z</time></trkpt><trkpt lat="45.09102274345434" lon="11.71710207301223"><ele>4.0</ele><time>2026-05-02T09:01:00.001Z</time></trkpt><trkpt lat="45.0909562734895" lon="11.716822208570878"><ele>4.0</ele><time>2026-05-02T09:01:01.001Z</time></trkpt><trkpt lat="45.09091254883997" lon="11.71652256917835"><ele>4.0</ele><time>2026-05-02T09:01:02.001Z</time></trkpt><trkpt lat="45.09087952144305" lon="11.716187349824876"><ele>3.5</ele><time>2026-05-02T09:01:03.001Z</time></trkpt><trkpt lat="45.0908585325384" lon="11.715850027271243"><ele>3.0</ele><time>2026-05-02T09:01:04.001Z</time></trkpt><trkpt lat="45.09083579593612" lon="11.715529706245057"><ele>3.0</ele><time>2026-05-02T09:01:05.001Z</time></trkpt><trkpt lat="45.09080610839582" lon="11.715233260301199"><ele>3.0</ele><time>2026-05-02T09:01:06.001Z</time></trkpt><trkpt lat="45.090771298185" lon="11.714961097141899"><ele>3.0</ele><time>2026-05-02T09:01:07.001Z</time></trkpt><trkpt lat="45.090732843452415" lon="11.714691241423266"><ele>3.0</ele><time>2026-05-02T09:01:08.001Z</time></trkpt><trkpt lat="45.090696577774374" lon="11.71443272399621"><ele>3.0</ele><time>2026-05-02T09:01:09.001Z</time></trkpt><trkpt lat="45.09068771469637" lon="11.714182815835267"><ele>3.0</ele><time>2026-05-02T09:01:10.001Z</time></trkpt><trkpt lat="45.09068635022394" lon="11.713949980788993"><ele>3.0</ele><time>2026-05-02T09:01:11.001Z</time></trkpt><trkpt lat="45.090685617889115" lon="11.713704164950508"><ele>3.0</ele><time>2026-05-02T09:01:12.001Z</time></trkpt><trkpt lat="45.09071032403972" lon="11.713464017854944"><ele>3.0</ele><time>2026-05-02T09:01:13.001Z</time></trkpt><trkpt lat="45.09072640674989" lon="11.713212744876195"><ele>3.0</ele><time>2026-05-02T09:01:14.001Z</time></trkpt><trkpt lat="45.09072444093798" lon="11.712955104347555"><ele>3.0</ele><time>2026-05-02T09:01:15.001Z</time></trkpt><trkpt lat="45.090701454334685" lon="11.712700109605304"><ele>3.0</ele><time>2026-05-02T09:01:16.001Z</time></trkpt><trkpt lat="45.090662072136425" lon="11.712432390887377"><ele>3.0</ele><time>2026-05-02T09:01:17.001Z</time></trkpt><trkpt lat="45.09061742889521" lon="11.712155518391176"><ele>3.0</ele><time>2026-05-02T09:01:18.001Z</time></trkpt><trkpt lat="45.090563142576556" lon="11.711890507549011"><ele>3.0</ele><time>2026-05-02T09:01:19.001Z</time></trkpt><trkpt lat="45.090502185042716" lon="11.71164111104403"><ele>3.333333333333333</ele><time>2026-05-02T09:01:20.001Z</time></trkpt><trkpt lat="45.09042286357651" lon="11.711390146484076"><ele>3.6666666666666665</ele><time>2026-05-02T09:01:21.001Z</time></trkpt><trkpt lat="45.09032044888211" lon="11.711129312316215"><ele>4.0</ele><time>2026-05-02T09:01:22.001Z</time></trkpt><trkpt lat="45.09021772975226" lon="11.710856955635855"><ele>4.0</ele><time>2026-05-02T09:01:23.001Z</time></trkpt><trkpt lat="45.09013454238717" lon="11.710567996681805"><ele>4.0</ele><time>2026-05-02T09:01:24.001Z</time></trkpt><trkpt lat="45.09006946904456" lon="11.710271220751965"><ele>4.0</ele><time>2026-05-02T09:01:25.001Z</time></trkpt><trkpt lat="45.090003989788514" lon="11.70998188056479"><ele>3.333333333333333</ele><time>2026-05-02T09:01:26.001Z</time></trkpt><trkpt lat="45.08994722710084" lon="11.709702699512059"><ele>2.6666666666666665</ele><time>2026-05-02T09:01:27.001Z</time></trkpt><trkpt lat="45.08989861407847" lon="11.70942323337883"><ele>2.0</ele><time>2026-05-02T09:01:28.001Z</time></trkpt><trkpt lat="45.08987498757852" lon="11.709130747058163"><ele>2.0</ele><time>2026-05-02T09:01:29.001Z</time></trkpt><trkpt lat="45.089832597350366" lon="11.708836063346329"><ele>2.0</ele><time>2026-05-02T09:01:30.001Z</time></trkpt><trkpt lat="45.08981147689691" lon="11.70854477653712"><ele>2.0</ele><time>2026-05-02T09:01:31.001Z</time></trkpt><trkpt lat="45.089818891592074" lon="11.70826045138043"><ele>2.333333333333333</ele><time>2026-05-02T09:01:32.001Z</time></trkpt><trkpt lat="45.089813351434856" lon="11.707978038378725"><ele>2.6666666666666665</ele><time>2026-05-02T09:01:33.001Z</time></trkpt><trkpt lat="45.08983417563371" lon="11.707685152750615"><ele>3.0</ele><time>2026-05-02T09:01:34.001Z</time></trkpt><trkpt lat="45.089855576653974" lon="11.707412766106623"><ele>3.0</ele><time>2026-05-02T09:01:35.001Z</time></trkpt><trkpt lat="45.089871812083764" lon="11.707151921457315"><ele>3.0</ele><time>2026-05-02T09:01:36.001Z</time></trkpt><trkpt lat="45.08988445363809" lon="11.706940662574441"><ele>3.0</ele><time>2026-05-02T09:01:37.001Z</time></trkpt><trkpt lat="45.089900711166464" lon="11.70674527541205"><ele>3.0</ele><time>2026-05-02T09:01:38.001Z</time></trkpt><trkpt lat="45.08991115287972" lon="11.706566668204307"><ele>3.0</ele><time>2026-05-02T09:01:39.001Z</time></trkpt><trkpt lat="45.08991009337584" lon="11.70640663239292"><ele>3.0</ele><time>2026-05-02T09:01:40.001Z</time></trkpt><trkpt lat="45.08988947255219" lon="11.706270764207389"><ele>3.0</ele><time>2026-05-02T09:01:41.001Z</time></trkpt><trkpt lat="45.0898525438296" lon="11.706131320909858"><ele>3.0</ele><time>2026-05-02T09:01:42.001Z</time></trkpt><trkpt lat="45.08979952048391" lon="11.705981446275327"><ele>3.25</ele><time>2026-05-02T09:01:43.001Z</time></trkpt><trkpt lat="45.08974105719389" lon="11.705816947018391"><ele>3.5</ele><time>2026-05-02T09:01:44.001Z</time></trkpt><trkpt lat="45.08968378826873" lon="11.705633535442253"><ele>3.75</ele><time>2026-05-02T09:01:45.001Z</time></trkpt><trkpt lat="45.08962203961769" lon="11.705446461355983"><ele>4.0</ele><time>2026-05-02T09:01:46.001Z</time></trkpt><trkpt lat="45.0895395068728" lon="11.705267124325763"><ele>4.0</ele><time>2026-05-02T09:01:47.001Z</time></trkpt><trkpt lat="45.089430898745505" lon="11.705080267360826"><ele>4.0</ele><time>2026-05-02T09:01:48.001Z</time></trkpt><trkpt lat="45.089304787888125" lon="11.704883261346774"><ele>4.0</ele><time>2026-05-02T09:01:49.001Z</time></trkpt><trkpt lat="45.08916456320581" lon="11.704674724432012"><ele>3.6666666666666665</ele><time>2026-05-02T09:01:50.001Z</time></trkpt><trkpt lat="45.08905914211694" lon="11.704419984416656"><ele>3.333333333333333</ele><time>2026-05-02T09:01:51.001Z</time></trkpt><trkpt lat="45.08894648948086" lon="11.704149003501024"><ele>3.0</ele><time>2026-05-02T09:01:52.001Z</time></trkpt><trkpt lat="45.088848092334366" lon="11.703906700755581"><ele>3.0</ele><time>2026-05-02T09:01:53.001Z</time></trkpt><trkpt lat="45.08875047142906" lon="11.703711690713758"><ele>3.0</ele><time>2026-05-02T09:01:54.001Z</time></trkpt><trkpt lat="45.088685494382304" lon="11.703549021778548"><ele>3.0</ele><time>2026-05-02T09:01:55.001Z</time></trkpt><trkpt lat="45.08863314250208" lon="11.703413704741523"><ele>3.0</ele><time>2026-05-02T09:01:56.001Z</time></trkpt><trkpt lat="45.08859823032286" lon="11.703302376674086"><ele>3.2</ele><time>2026-05-02T09:01:57.001Z</time></trkpt><trkpt lat="45.088588374347246" lon="11.70321390718634"><ele>3.4</ele><time>2026-05-02T09:01:58.001Z</time></trkpt><trkpt lat="45.08866132188601" lon="11.703100001207446"><ele>3.6000000000000005</ele><time>2026-05-02T09:02:00.001Z</time></trkpt><trkpt lat="45.08873364950824" lon="11.70303161086816"><ele>3.8000000000000003</ele><time>2026-05-02T09:02:01.001Z</time></trkpt><trkpt lat="45.088812891327024" lon="11.702937131805594"><ele>4.0</ele><time>2026-05-02T09:02:02.001Z</time></trkpt><trkpt lat="45.0889239217797" lon="11.702846227959807"><ele>4.0</ele><time>2026-05-02T09:02:03.001Z</time></trkpt><trkpt lat="45.08903620205652" lon="11.702732255099962"><ele>4.0</ele><time>2026-05-02T09:02:04.001Z</time></trkpt><trkpt lat="45.08916905346285" lon="11.702608508981033"><ele>4.0</ele><time>2026-05-02T09:02:05.001Z</time></trkpt><trkpt lat="45.0893206332996" lon="11.702462767825299"><ele>4.0</ele><time>2026-05-02T09:02:06.001Z</time></trkpt><trkpt lat="45.08949344035748" lon="11.702300698188024"><ele>4.0</ele><time>2026-05-02T09:02:07.001Z</time></trkpt><trkpt lat="45.08968170910244" lon="11.702121849256123"><ele>4.0</ele><time>2026-05-02T09:02:08.001Z</time></trkpt><trkpt lat="45.08988496851423" lon="11.701929902098476"><ele>3.5</ele><time>2026-05-02T09:02:09.001Z</time></trkpt><trkpt lat="45.090096304435725" lon="11.701732648369363"><ele>3.0</ele><time>2026-05-02T09:02:10.001Z</time></trkpt><trkpt lat="45.09030915124843" lon="11.701530544267374"><ele>3.0</ele><time>2026-05-02T09:02:11.001Z</time></trkpt><trkpt lat="45.090499336520075" lon="11.701353561172569"><ele>3.0</ele><time>2026-05-02T09:02:12.001Z</time></trkpt><trkpt lat="45.09066916232328" lon="11.70118614893256"><ele>3.0</ele><time>2026-05-02T09:02:13.001Z</time></trkpt><trkpt lat="45.09081471881483" lon="11.701042679339775"><ele>3.0</ele><time>2026-05-02T09:02:14.001Z</time></trkpt><trkpt lat="45.09095665345616" lon="11.700911130288155"><ele>3.0</ele><time>2026-05-02T09:02:15.001Z</time></trkpt><trkpt lat="45.09108697866347" lon="11.700793242384258"><ele>3.0</ele><time>2026-05-02T09:02:16.001Z</time></trkpt><trkpt lat="45.091209784341736" lon="11.700686642809599"><ele>3.0</ele><time>2026-05-02T09:02:17.001Z</time></trkpt><trkpt lat="45.091331283273604" lon="11.700590003532295"><ele>3.0</ele><time>2026-05-02T09:02:18.001Z</time></trkpt><trkpt lat="45.09145399357801" lon="11.700506262085474"><ele>3.0</ele><time>2026-05-02T09:02:19.001Z</time></trkpt><trkpt lat="45.09157674852971" lon="11.700434364715816"><ele>3.0</ele><time>2026-05-02T09:02:20.001Z</time></trkpt><trkpt lat="45.091701235752275" lon="11.70037625452046"><ele>3.0</ele><time>2026-05-02T09:02:21.001Z</time></trkpt><trkpt lat="45.091819378818215" lon="11.700328216501829"><ele>3.0</ele><time>2026-05-02T09:02:22.001Z</time></trkpt><trkpt lat="45.09193158212072" lon="11.700281952735025"><ele>3.0</ele><time>2026-05-02T09:02:23.001Z</time></trkpt><trkpt lat="45.09203878355157" lon="11.700244830561692"><ele>3.0</ele><time>2026-05-02T09:02:24.001Z</time></trkpt><trkpt lat="45.09214443974179" lon="11.700214466332408"><ele>3.0</ele><time>2026-05-02T09:02:25.001Z</time></trkpt><trkpt lat="45.092247483032075" lon="11.700180540262728"><ele>3.0</ele><time>2026-05-02T09:02:26.001Z</time></trkpt><trkpt lat="45.09234881353588" lon="11.700141512856929"><ele>3.0</ele><time>2026-05-02T09:02:27.001Z</time></trkpt><trkpt lat="45.09245322804447" lon="11.70008866303999"><ele>3.0</ele><time>2026-05-02T09:02:28.001Z</time></trkpt><trkpt lat="45.092547721905234" lon="11.700011159571753"><ele>3.0</ele><time>2026-05-02T09:02:29Z</time></trkpt><trkpt lat="45.09263663585217" lon="11.699922403211533"><ele>3.2</ele><time>2026-05-02T09:02:30Z</time></trkpt><trkpt lat="45.0927096979612" lon="11.699814437949538"><ele>3.4</ele><time>2026-05-02T09:02:31Z</time></trkpt><trkpt lat="45.09277077015514" lon="11.699690560440663"><ele>3.6000000000000005</ele><time>2026-05-02T09:02:32Z</time></trkpt><trkpt lat="45.092825630652264" lon="11.699545564835352"><ele>3.8000000000000003</ele><time>2026-05-02T09:02:33Z</time></trkpt><trkpt lat="45.09286704732597" lon="11.699387058106566"><ele>4.0</ele><time>2026-05-02T09:02:34Z</time></trkpt><trkpt lat="45.092900823709144" lon="11.699207052329951"><ele>4.333333333333333</ele><time>2026-05-02T09:02:35Z</time></trkpt><trkpt lat="45.092937936850994" lon="11.699016688520274"><ele>4.666666666666667</ele><time>2026-05-02T09:02:36Z</time></trkpt><trkpt lat="45.09299556856198" lon="11.698817709210418"><ele>5.0</ele><time>2026-05-02T09:02:37Z</time></trkpt><trkpt lat="45.09304221177806" lon="11.69859521983624"><ele>4.666666666666667</ele><time>2026-05-02T09:02:38Z</time></trkpt><trkpt lat="45.09306432102868" lon="11.698370185875525"><ele>4.333333333333333</ele><time>2026-05-02T09:02:39Z</time></trkpt><trkpt lat="45.093094598048424" lon="11.698138864767339"><ele>4.0</ele><time>2026-05-02T09:02:40Z</time></trkpt><trkpt lat="45.09310596795227" lon="11.697901798797552"><ele>4.333333333333333</ele><time>2026-05-02T09:02:41Z</time></trkpt><trkpt lat="45.09312361884231" lon="11.697663015170587"><ele>4.666666666666667</ele><time>2026-05-02T09:02:42Z</time></trkpt><trkpt lat="45.09315592129197" lon="11.697434247654614"><ele>5.0</ele><time>2026-05-02T09:02:43Z</time></trkpt><trkpt lat="45.09320775593622" lon="11.697212913296378"><ele>4.666666666666667</ele><time>2026-05-02T09:02:44Z</time></trkpt><trkpt lat="45.093278792050086" lon="11.697000309438815"><ele>4.333333333333333</ele><time>2026-05-02T09:02:45Z</time></trkpt><trkpt lat="45.09336752285611" lon="11.696793690243608"><ele>4.0</ele><time>2026-05-02T09:02:46Z</time></trkpt><trkpt lat="45.09346624816944" lon="11.696592834681129"><ele>4.0</ele><time>2026-05-02T09:02:47Z</time></trkpt><trkpt lat="45.09357081262504" lon="11.69639851821283"><ele>4.0</ele><time>2026-05-02T09:02:48Z</time></trkpt><trkpt lat="45.09368447063884" lon="11.696211712015778"><ele>4.0</ele><time>2026-05-02T09:02:49Z</time></trkpt><trkpt lat="45.093808914402864" lon="11.696035208304332"><ele>4.0</ele><time>2026-05-02T09:02:50Z</time></trkpt><trkpt lat="45.09394244468898" lon="11.695867023035865"><ele>4.0</ele><time>2026-05-02T09:02:51Z</time></trkpt><trkpt lat="45.094079719770384" lon="11.695704359473732"><ele>4.0</ele><time>2026-05-02T09:02:52Z</time></trkpt><trkpt lat="45.0942134805169" lon="11.695538709186462"><ele>4.0</ele><time>2026-05-02T09:02:53Z</time></trkpt><trkpt lat="45.094344225067694" lon="11.69536442526292"><ele>4.0</ele><time>2026-05-02T09:02:54Z</time></trkpt><trkpt lat="45.09447683392975" lon="11.695189927437639"><ele>4.0</ele><time>2026-05-02T09:02:55Z</time></trkpt><trkpt lat="45.094605563724535" lon="11.69500909001316"><ele>4.0</ele><time>2026-05-02T09:02:56Z</time></trkpt><trkpt lat="45.09471751396181" lon="11.694801593459218"><ele>4.0</ele><time>2026-05-02T09:02:57Z</time></trkpt><trkpt lat="45.09481350162605" lon="11.694586572838599"><ele>4.0</ele><time>2026-05-02T09:02:58Z</time></trkpt><trkpt lat="45.09491502681813" lon="11.694381464319248"><ele>4.0</ele><time>2026-05-02T09:02:59Z</time></trkpt><trkpt lat="45.09503644931221" lon="11.694194849841246"><ele>4.0</ele><time>2026-05-02T09:03:00Z</time></trkpt><trkpt lat="45.09519172569319" lon="11.69405978517615"><ele>4.0</ele><time>2026-05-02T09:03:01Z</time></trkpt><trkpt lat="45.09535176595523" lon="11.693914443257368"><ele>4.0</ele><time>2026-05-02T09:03:02Z</time></trkpt><trkpt lat="45.09550813802328" lon="11.693754815637456"><ele>4.0</ele><time>2026-05-02T09:03:03Z</time></trkpt><trkpt lat="45.0956585834837" lon="11.6936243776462"><ele>4.0</ele><time>2026-05-02T09:03:04Z</time></trkpt><trkpt lat="45.09579756323217" lon="11.693508959590764"><ele>4.0</ele><time>2026-05-02T09:03:05Z</time></trkpt><trkpt lat="45.095940080690106" lon="11.693420074061171"><ele>4.0</ele><time>2026-05-02T09:03:06Z</time></trkpt><trkpt lat="45.096095142512894" lon="11.693358907719643"><ele>4.0</ele><time>2026-05-02T09:03:07Z</time></trkpt><trkpt lat="45.09626096078118" lon="11.693316340044632"><ele>4.0</ele><time>2026-05-02T09:03:08Z</time></trkpt><trkpt lat="45.096415511250356" lon="11.693288461138842"><ele>4.0</ele><time>2026-05-02T09:03:09Z</time></trkpt><trkpt lat="45.09655656163254" lon="11.693260850493843"><ele>4.0</ele><time>2026-05-02T09:03:10Z</time></trkpt><trkpt lat="45.09667136786986" lon="11.693231239566868"><ele>4.0</ele><time>2026-05-02T09:03:11Z</time></trkpt><trkpt lat="45.096776230757804" lon="11.693215674091485"><ele>4.4</ele><time>2026-05-02T09:03:12Z</time></trkpt><trkpt lat="45.09687123932849" lon="11.69320606865001"><ele>4.800000000000001</ele><time>2026-05-02T09:03:13Z</time></trkpt><trkpt lat="45.096944054716765" lon="11.693198258342328"><ele>5.199999999999999</ele><time>2026-05-02T09:03:14Z</time></trkpt><trkpt lat="45.09703470505548" lon="11.69309078752819"><ele>5.6</ele><time>2026-05-02T09:03:16Z</time></trkpt><trkpt lat="45.097056008709984" lon="11.692977051111827"><ele>6.0</ele><time>2026-05-02T09:03:17Z</time></trkpt><trkpt lat="45.09705282110266" lon="11.692835047370407"><ele>5.5</ele><time>2026-05-02T09:03:18Z</time></trkpt><trkpt lat="45.097032796976094" lon="11.692665029332245"><ele>5.0</ele><time>2026-05-02T09:03:19Z</time></trkpt><trkpt lat="45.09701195194745" lon="11.692468129367317"><ele>4.5</ele><time>2026-05-02T09:03:20Z</time></trkpt><trkpt lat="45.0970050722709" lon="11.692249141959751"><ele>4.0</ele><time>2026-05-02T09:03:21Z</time></trkpt><trkpt lat="45.097008176852235" lon="11.69200966103949"><ele>4.0</ele><time>2026-05-02T09:03:22Z</time></trkpt><trkpt lat="45.09700190203581" lon="11.691759606506796"><ele>4.0</ele><time>2026-05-02T09:03:23Z</time></trkpt><trkpt lat="45.09699080537858" lon="11.691485513094149"><ele>4.0</ele><time>2026-05-02T09:03:24Z</time></trkpt><trkpt lat="45.0969792869747" lon="11.691201227955993"><ele>3.6666666666666665</ele><time>2026-05-02T09:03:25Z</time></trkpt><trkpt lat="45.09698570405038" lon="11.690906092542633"><ele>3.333333333333333</ele><time>2026-05-02T09:03:26Z</time></trkpt><trkpt lat="45.09696787613556" lon="11.690603990775774"><ele>3.0</ele><time>2026-05-02T09:03:27Z</time></trkpt><trkpt lat="45.09696945391221" lon="11.6902951669342"><ele>3.0</ele><time>2026-05-02T09:03:28Z</time></trkpt><trkpt lat="45.09696204304509" lon="11.689967126362355"><ele>3.0</ele><time>2026-05-02T09:03:29Z</time></trkpt><trkpt lat="45.096953039302505" lon="11.689633683962912"><ele>3.0</ele><time>2026-05-02T09:03:30Z</time></trkpt><trkpt lat="45.096948632435485" lon="11.689293500493301"><ele>3.0</ele><time>2026-05-02T09:03:31Z</time></trkpt><trkpt lat="45.09694701983714" lon="11.688948343967239"><ele>3.0</ele><time>2026-05-02T09:03:32Z</time></trkpt><trkpt lat="45.09694505520823" lon="11.688593294687072"><ele>3.0</ele><time>2026-05-02T09:03:33Z</time></trkpt><trkpt lat="45.09694905740463" lon="11.688237337678565"><ele>3.5</ele><time>2026-05-02T09:03:34Z</time></trkpt><trkpt lat="45.0969439901307" lon="11.687884098284126"><ele>4.0</ele><time>2026-05-02T09:03:35Z</time></trkpt><trkpt lat="45.0969429899946" lon="11.687548364081499"><ele>4.0</ele><time>2026-05-02T09:03:36Z</time></trkpt><trkpt lat="45.09694035421028" lon="11.687246300046516"><ele>4.0</ele><time>2026-05-02T09:03:37Z</time></trkpt><trkpt lat="45.09693479097153" lon="11.686962676752579"><ele>4.0</ele><time>2026-05-02T09:03:38Z</time></trkpt><trkpt lat="45.096933581512914" lon="11.686680877226674"><ele>4.0</ele><time>2026-05-02T09:03:39Z</time></trkpt><trkpt lat="45.096931600862945" lon="11.686399265135329"><ele>4.0</ele><time>2026-05-02T09:03:40Z</time></trkpt><trkpt lat="45.09692874500712" lon="11.686117276851718"><ele>4.0</ele><time>2026-05-02T09:03:41Z</time></trkpt><trkpt lat="45.096930737917276" lon="11.685833947790835"><ele>4.0</ele><time>2026-05-02T09:03:42Z</time></trkpt><trkpt lat="45.09693511709323" lon="11.685568045814932"><ele>4.0</ele><time>2026-05-02T09:03:43Z</time></trkpt><trkpt lat="45.09693427981318" lon="11.68531926485656"><ele>4.0</ele><time>2026-05-02T09:03:44Z</time></trkpt><trkpt lat="45.096930322222086" lon="11.685068739967267"><ele>4.0</ele><time>2026-05-02T09:03:45Z</time></trkpt><trkpt lat="45.096929333988925" lon="11.684813579584182"><ele>4.0</ele><time>2026-05-02T09:03:46Z</time></trkpt><trkpt lat="45.0969265989909" lon="11.684548618694144"><ele>4.0</ele><time>2026-05-02T09:03:47Z</time></trkpt><trkpt lat="45.09691942689886" lon="11.684295825407274"><ele>4.333333333333333</ele><time>2026-05-02T09:03:48Z</time></trkpt><trkpt lat="45.0969159278211" lon="11.684026671933387"><ele>4.666666666666667</ele><time>2026-05-02T09:03:49Z</time></trkpt><trkpt lat="45.09692077749032" lon="11.683783014143513"><ele>5.0</ele><time>2026-05-02T09:03:50Z</time></trkpt><trkpt lat="45.096930316409626" lon="11.683551894016558"><ele>5.0</ele><time>2026-05-02T09:03:51Z</time></trkpt><trkpt lat="45.09694909493246" lon="11.683343031182876"><ele>5.0</ele><time>2026-05-02T09:03:52Z</time></trkpt><trkpt lat="45.09697882239945" lon="11.683165182567018"><ele>5.0</ele><time>2026-05-02T09:03:53Z</time></trkpt><trkpt lat="45.09699492375581" lon="11.682970113619467"><ele>5.0</ele><time>2026-05-02T09:03:54Z</time></trkpt><trkpt lat="45.09702005998996" lon="11.682820820146906"><ele>5.0</ele><time>2026-05-02T09:03:55Z</time></trkpt><trkpt lat="45.097040966552456" lon="11.682705766740613"><ele>5.0</ele><time>2026-05-02T09:03:56Z</time></trkpt><trkpt lat="45.09706794567208" lon="11.682608781877425"><ele>5.0</ele><time>2026-05-02T09:03:57Z</time></trkpt><trkpt lat="45.09711762293597" lon="11.682538225303254"><ele>5.0</ele><time>2026-05-02T09:03:58Z</time></trkpt><trkpt lat="45.097201406979224" lon="11.68251921268763"><ele>5.0</ele><time>2026-05-02T09:03:59Z</time></trkpt><trkpt lat="45.097299623529715" lon="11.682587281878675"><ele>5.0</ele><time>2026-05-02T09:04:00Z</time></trkpt><trkpt lat="45.097418934129244" lon="11.682619578308447"><ele>5.0</ele><time>2026-05-02T09:04:01Z</time></trkpt><trkpt lat="45.09754714758541" lon="11.6826792956667"><ele>5.0</ele><time>2026-05-02T09:04:02Z</time></trkpt><trkpt lat="45.09768423208456" lon="11.682734535913925"><ele>5.0</ele><time>2026-05-02T09:04:03.001Z</time></trkpt><trkpt lat="45.09779654980004" lon="11.682777231175189"><ele>5.0</ele><time>2026-05-02T09:04:04.001Z</time></trkpt><trkpt lat="45.09788658865715" lon="11.682813478742938"><ele>5.0</ele><time>2026-05-02T09:04:05.001Z</time></trkpt><trkpt lat="45.0979620308638" lon="11.682829900269475"><ele>5.0</ele><time>2026-05-02T09:04:06.001Z</time></trkpt><trkpt lat="45.09803975414431" lon="11.68279418861514"><ele>5.0</ele><time>2026-05-02T09:04:07.001Z</time></trkpt><trkpt lat="45.09809582013035" lon="11.682702245530718"><ele>5.0</ele><time>2026-05-02T09:04:08.001Z</time></trkpt><trkpt lat="45.09812665688027" lon="11.682554882985153"><ele>5.0</ele><time>2026-05-02T09:04:09.001Z</time></trkpt><trkpt lat="45.098159737774715" lon="11.682381101597041"><ele>5.0</ele><time>2026-05-02T09:04:10.001Z</time></trkpt><trkpt lat="45.09820578239295" lon="11.682186998137315"><ele>5.0</ele><time>2026-05-02T09:04:11.001Z</time></trkpt><trkpt lat="45.09825355318355" lon="11.681975479084509"><ele>5.0</ele><time>2026-05-02T09:04:12.001Z</time></trkpt><trkpt lat="45.09830866147779" lon="11.681746609932295"><ele>5.333333333333334</ele><time>2026-05-02T09:04:13.001Z</time></trkpt><trkpt lat="45.09836653034212" lon="11.681505068005347"><ele>5.666666666666667</ele><time>2026-05-02T09:04:14.001Z</time></trkpt><trkpt lat="45.0984262480995" lon="11.681254379754584"><ele>6.0</ele><time>2026-05-02T09:04:15.001Z</time></trkpt><trkpt lat="45.098489194953224" lon="11.680990890598729"><ele>6.0</ele><time>2026-05-02T09:04:16.001Z</time></trkpt><trkpt lat="45.09855465032159" lon="11.680715108208114"><ele>6.0</ele><time>2026-05-02T09:04:17.001Z</time></trkpt><trkpt lat="45.09861980904176" lon="11.680437113984436"><ele>6.0</ele><time>2026-05-02T09:04:18.001Z</time></trkpt><trkpt lat="45.098682982085066" lon="11.680169040704989"><ele>6.0</ele><time>2026-05-02T09:04:19.001Z</time></trkpt><trkpt lat="45.09874245954679" lon="11.67991983088657"><ele>6.0</ele><time>2026-05-02T09:04:20Z</time></trkpt><trkpt lat="45.098796927215965" lon="11.679688222746401"><ele>6.0</ele><time>2026-05-02T09:04:21Z</time></trkpt><trkpt lat="45.09884884274734" lon="11.679470037109912"><ele>6.0</ele><time>2026-05-02T09:04:22Z</time></trkpt><trkpt lat="45.098896966600975" lon="11.679269845276222"><ele>6.0</ele><time>2026-05-02T09:04:23Z</time></trkpt><trkpt lat="45.098942178226906" lon="11.679078346058718"><ele>6.0</ele><time>2026-05-02T09:04:24Z</time></trkpt><trkpt lat="45.098983179308235" lon="11.678880922320683"><ele>6.0</ele><time>2026-05-02T09:04:25Z</time></trkpt><trkpt lat="45.099030730988524" lon="11.678679894232804"><ele>5.666666666666667</ele><time>2026-05-02T09:04:26Z</time></trkpt><trkpt lat="45.099083076733734" lon="11.67847055017922"><ele>5.333333333333334</ele><time>2026-05-02T09:04:27Z</time></trkpt><trkpt lat="45.099134846801505" lon="11.67824300177111"><ele>5.0</ele><time>2026-05-02T09:04:28Z</time></trkpt><trkpt lat="45.099189818875665" lon="11.678004475216518"><ele>5.0</ele><time>2026-05-02T09:04:29Z</time></trkpt><trkpt lat="45.09924875629808" lon="11.677759938305586"><ele>5.0</ele><time>2026-05-02T09:04:30Z</time></trkpt><trkpt lat="45.09930316575088" lon="11.677529371131614"><ele>5.0</ele><time>2026-05-02T09:04:31Z</time></trkpt><trkpt lat="45.099351927687316" lon="11.67732717782231"><ele>5.0</ele><time>2026-05-02T09:04:32Z</time></trkpt><trkpt lat="45.09939989797415" lon="11.67713615409069"><ele>5.0</ele><time>2026-05-02T09:04:33Z</time></trkpt><trkpt lat="45.09944419368397" lon="11.67696593878211"><ele>5.0</ele><time>2026-05-02T09:04:34Z</time></trkpt><trkpt lat="45.09949290859474" lon="11.676806897984639"><ele>5.0</ele><time>2026-05-02T09:04:35Z</time></trkpt><trkpt lat="45.099540556287" lon="11.676641334138555"><ele>4.75</ele><time>2026-05-02T09:04:36Z</time></trkpt><trkpt lat="45.09957797965897" lon="11.676462941224075"><ele>4.5</ele><time>2026-05-02T09:04:37Z</time></trkpt><trkpt lat="45.099599207613174" lon="11.676269142608987"><ele>4.25</ele><time>2026-05-02T09:04:38Z</time></trkpt><trkpt lat="45.09959925338295" lon="11.676044790276327"><ele>4.0</ele><time>2026-05-02T09:04:39Z</time></trkpt><trkpt lat="45.09960022597999" lon="11.675804128115363"><ele>4.5</ele><time>2026-05-02T09:04:40Z</time></trkpt><trkpt lat="45.099599963153565" lon="11.675583329191394"><ele>5.0</ele><time>2026-05-02T09:04:41Z</time></trkpt><trkpt lat="45.09959905848429" lon="11.675380078267453"><ele>5.5</ele><time>2026-05-02T09:04:42Z</time></trkpt><trkpt lat="45.09959648182866" lon="11.675189626171955"><ele>6.0</ele><time>2026-05-02T09:04:43Z</time></trkpt><trkpt lat="45.09958957084058" lon="11.675003277718659"><ele>6.0</ele><time>2026-05-02T09:04:44Z</time></trkpt><trkpt lat="45.09958481496307" lon="11.674819961154881"><ele>6.0</ele><time>2026-05-02T09:04:45Z</time></trkpt><trkpt lat="45.09958036845667" lon="11.674651899256055"><ele>6.0</ele><time>2026-05-02T09:04:46Z</time></trkpt><trkpt lat="45.09957797038575" lon="11.674490486644059"><ele>6.0</ele><time>2026-05-02T09:04:47Z</time></trkpt><trkpt lat="45.099578655496686" lon="11.674343126523413"><ele>6.0</ele><time>2026-05-02T09:04:48Z</time></trkpt><trkpt lat="45.09958237219957" lon="11.674206250735038"><ele>6.0</ele><time>2026-05-02T09:04:49Z</time></trkpt><trkpt lat="45.099611175454115" lon="11.67407241548348"><ele>6.0</ele><time>2026-05-02T09:04:50Z</time></trkpt><trkpt lat="45.099621140371156" lon="11.673923887703692"><ele>6.0</ele><time>2026-05-02T09:04:51Z</time></trkpt><trkpt lat="45.09966613936401" lon="11.673772122468502"><ele>6.0</ele><time>2026-05-02T09:04:52Z</time></trkpt><trkpt lat="45.099719361787706" lon="11.673616369701696"><ele>5.75</ele><time>2026-05-02T09:04:53Z</time></trkpt><trkpt lat="45.099775398430786" lon="11.673456180587468"><ele>5.5</ele><time>2026-05-02T09:04:54Z</time></trkpt><trkpt lat="45.099841924067846" lon="11.673296649149096"><ele>5.25</ele><time>2026-05-02T09:04:55Z</time></trkpt><trkpt lat="45.0999269810409" lon="11.67314364928513"><ele>5.0</ele><time>2026-05-02T09:04:56Z</time></trkpt><trkpt lat="45.100014945441586" lon="11.67299692611198"><ele>5.0</ele><time>2026-05-02T09:04:57Z</time></trkpt><trkpt lat="45.1001006522668" lon="11.672847173496127"><ele>5.0</ele><time>2026-05-02T09:04:58Z</time></trkpt><trkpt lat="45.10017167762088" lon="11.672683549195812"><ele>5.0</ele><time>2026-05-02T09:04:59Z</time></trkpt><trkpt lat="45.10023291243747" lon="11.672510770118308"><ele>5.0</ele><time>2026-05-02T09:05:00Z</time></trkpt><trkpt lat="45.10029589967059" lon="11.67233911269887"><ele>5.25</ele><time>2026-05-02T09:05:01Z</time></trkpt><trkpt lat="45.100366138527555" lon="11.672170668449239"><ele>5.5</ele><time>2026-05-02T09:05:02Z</time></trkpt><trkpt lat="45.10043538818253" lon="11.672003316407741"><ele>5.75</ele><time>2026-05-02T09:05:03Z</time></trkpt><trkpt lat="45.10050011026721" lon="11.6718347262317"><ele>6.0</ele><time>2026-05-02T09:05:04Z</time></trkpt><trkpt lat="45.10056158580757" lon="11.671665974449205"><ele>6.25</ele><time>2026-05-02T09:05:05Z</time></trkpt><trkpt lat="45.100613942300896" lon="11.67149385396949"><ele>6.5</ele><time>2026-05-02T09:05:06Z</time></trkpt><trkpt lat="45.10064883187119" lon="11.671313796041881"><ele>6.75</ele><time>2026-05-02T09:05:07Z</time></trkpt><trkpt lat="45.10066750946016" lon="11.671128013647287"><ele>7.0</ele><time>2026-05-02T09:05:08Z</time></trkpt><trkpt lat="45.100672934756616" lon="11.670936659852801"><ele>7.0</ele><time>2026-05-02T09:05:09Z</time></trkpt><trkpt lat="45.100675368399955" lon="11.670737465785018"><ele>7.0</ele><time>2026-05-02T09:05:10Z</time></trkpt><trkpt lat="45.10068988339282" lon="11.670535447292627"><ele>7.0</ele><time>2026-05-02T09:05:11Z</time></trkpt><trkpt lat="45.10070540379421" lon="11.67033764616956"><ele>7.0</ele><time>2026-05-02T09:05:12Z</time></trkpt><trkpt lat="45.10072052558812" lon="11.67013459564639"><ele>6.75</ele><time>2026-05-02T09:05:13Z</time></trkpt><trkpt lat="45.10073251962076" lon="11.669930606683776"><ele>6.5</ele><time>2026-05-02T09:05:14Z</time></trkpt><trkpt lat="45.10074284310147" lon="11.669732818164936"><ele>6.25</ele><time>2026-05-02T09:05:15Z</time></trkpt><trkpt lat="45.100756184731196" lon="11.66953859177249"><ele>6.0</ele><time>2026-05-02T09:05:16Z</time></trkpt><trkpt lat="45.100770956145816" lon="11.669351520303193"><ele>6.0</ele><time>2026-05-02T09:05:17Z</time></trkpt><trkpt lat="45.10078102504757" lon="11.669160919566474"><ele>6.0</ele><time>2026-05-02T09:05:18Z</time></trkpt><trkpt lat="45.10079147180937" lon="11.668975173897833"><ele>6.0</ele><time>2026-05-02T09:05:19Z</time></trkpt><trkpt lat="45.10080141600855" lon="11.668791694418573"><ele>6.0</ele><time>2026-05-02T09:05:20Z</time></trkpt><trkpt lat="45.100812816385044" lon="11.66862071093943"><ele>6.0</ele><time>2026-05-02T09:05:21Z</time></trkpt><trkpt lat="45.10082110177625" lon="11.668457308642557"><ele>6.0</ele><time>2026-05-02T09:05:22Z</time></trkpt><trkpt lat="45.10082651554151" lon="11.668297980092952"><ele>6.0</ele><time>2026-05-02T09:05:23Z</time></trkpt><trkpt lat="45.100834701249916" lon="11.668134530651232"><ele>6.0</ele><time>2026-05-02T09:05:24Z</time></trkpt><trkpt lat="45.10084482260611" lon="11.667992744950585"><ele>6.0</ele><time>2026-05-02T09:05:25Z</time></trkpt><trkpt lat="45.10086183022738" lon="11.667862305994278"><ele>6.199999999999999</ele><time>2026-05-02T09:05:26Z</time></trkpt><trkpt lat="45.100877696636466" lon="11.667733423581778"><ele>6.3999999999999995</ele><time>2026-05-02T09:05:27Z</time></trkpt><trkpt lat="45.10088852876661" lon="11.667599494613427"><ele>6.6</ele><time>2026-05-02T09:05:28Z</time></trkpt><trkpt lat="45.10089360768061" lon="11.66744407616438"><ele>6.8</ele><time>2026-05-02T09:05:29Z</time></trkpt><trkpt lat="45.10089314102634" lon="11.667279883520832"><ele>7.0</ele><time>2026-05-02T09:05:30Z</time></trkpt><trkpt lat="45.100895828004745" lon="11.66710328090873"><ele>6.5</ele><time>2026-05-02T09:05:31Z</time></trkpt><trkpt lat="45.10090778976796" lon="11.666908487403617"><ele>6.0</ele><time>2026-05-02T09:05:32Z</time></trkpt><trkpt lat="45.10091788200837" lon="11.666713716284345"><ele>5.5</ele><time>2026-05-02T09:05:33Z</time></trkpt><trkpt lat="45.100922908956875" lon="11.666536090450844"><ele>5.0</ele><time>2026-05-02T09:05:34Z</time></trkpt><trkpt lat="45.10092730013846" lon="11.666378526468296"><ele>5.0</ele><time>2026-05-02T09:05:35Z</time></trkpt><trkpt lat="45.10093190055595" lon="11.666236240779295"><ele>5.0</ele><time>2026-05-02T09:05:36Z</time></trkpt><trkpt lat="45.100932148441785" lon="11.666105720590771"><ele>5.0</ele><time>2026-05-02T09:05:37Z</time></trkpt><trkpt lat="45.100927195064216" lon="11.665984538652145"><ele>5.0</ele><time>2026-05-02T09:05:38Z</time></trkpt><trkpt lat="45.10093063318268" lon="11.665892412029077"><ele>5.0</ele><time>2026-05-02T09:05:39Z</time></trkpt><trkpt lat="45.100960821679166" lon="11.665742066517474"><ele>5.2</ele><time>2026-05-02T09:05:41Z</time></trkpt><trkpt lat="45.101099771316704" lon="11.665677804579822"><ele>5.4</ele><time>2026-05-02T09:05:43Z</time></trkpt><trkpt lat="45.101174597781615" lon="11.665640007119281"><ele>5.6</ele><time>2026-05-02T09:05:44Z</time></trkpt><trkpt lat="45.1012567710099" lon="11.66557621445094"><ele>5.8</ele><time>2026-05-02T09:05:45Z</time></trkpt><trkpt lat="45.101353240871276" lon="11.665529040310892"><ele>6.0</ele><time>2026-05-02T09:05:46Z</time></trkpt><trkpt lat="45.10143595251229" lon="11.665476429002442"><ele>6.0</ele><time>2026-05-02T09:05:47Z</time></trkpt><trkpt lat="45.10152044901412" lon="11.665413306098921"><ele>6.0</ele><time>2026-05-02T09:05:48Z</time></trkpt><trkpt lat="45.10160364287823" lon="11.665331697449455"><ele>6.0</ele><time>2026-05-02T09:05:49Z</time></trkpt><trkpt lat="45.10169286442497" lon="11.665223131505972"><ele>6.0</ele><time>2026-05-02T09:05:50Z</time></trkpt><trkpt lat="45.10179395769275" lon="11.66511942930158"><ele>6.0</ele><time>2026-05-02T09:05:51Z</time></trkpt><trkpt lat="45.10191322367953" lon="11.66503134772247"><ele>5.75</ele><time>2026-05-02T09:05:52Z</time></trkpt><trkpt lat="45.102035277659226" lon="11.664939090340548"><ele>5.5</ele><time>2026-05-02T09:05:53Z</time></trkpt><trkpt lat="45.10213805162421" lon="11.664846169156757"><ele>5.25</ele><time>2026-05-02T09:05:54Z</time></trkpt><trkpt lat="45.10223024181716" lon="11.664770896585273"><ele>5.0</ele><time>2026-05-02T09:05:55Z</time></trkpt><trkpt lat="45.10230842036364" lon="11.664691727971793"><ele>5.0</ele><time>2026-05-02T09:05:56Z</time></trkpt><trkpt lat="45.1023852038414" lon="11.664606881238022"><ele>5.0</ele><time>2026-05-02T09:05:57Z</time></trkpt><trkpt lat="45.10239382635831" lon="11.664425068329907"><ele>5.0</ele><time>2026-05-02T09:05:58Z</time></trkpt><trkpt lat="45.10239940127193" lon="11.664247796940334"><ele>5.0</ele><time>2026-05-02T09:05:59Z</time></trkpt><trkpt lat="45.10243581978804" lon="11.664059692626207"><ele>5.25</ele><time>2026-05-02T09:06:00Z</time></trkpt><trkpt lat="45.10245907675754" lon="11.663867693945518"><ele>5.5</ele><time>2026-05-02T09:06:01Z</time></trkpt><trkpt lat="45.10248218934078" lon="11.66367688686782"><ele>5.75</ele><time>2026-05-02T09:06:02Z</time></trkpt><trkpt lat="45.10249037014884" lon="11.663476573622631"><ele>6.0</ele><time>2026-05-02T09:06:03Z</time></trkpt><trkpt lat="45.10252242622664" lon="11.663287979431093"><ele>6.25</ele><time>2026-05-02T09:06:04Z</time></trkpt><trkpt lat="45.102539941929656" lon="11.663097595222697"><ele>6.5</ele><time>2026-05-02T09:06:05Z</time></trkpt><trkpt lat="45.10256874575053" lon="11.662906244731703"><ele>6.75</ele><time>2026-05-02T09:06:06Z</time></trkpt><trkpt lat="45.10259487853891" lon="11.662711884301062"><ele>7.0</ele><time>2026-05-02T09:06:07Z</time></trkpt><trkpt lat="45.102621993892306" lon="11.662516888830055"><ele>7.0</ele><time>2026-05-02T09:06:08Z</time></trkpt><trkpt lat="45.10264149300762" lon="11.662330745965502"><ele>7.0</ele><time>2026-05-02T09:06:09Z</time></trkpt><trkpt lat="45.10266607438915" lon="11.66216423674293"><ele>7.0</ele><time>2026-05-02T09:06:10Z</time></trkpt><trkpt lat="45.10269961021148" lon="11.662026034088122"><ele>7.0</ele><time>2026-05-02T09:06:11Z</time></trkpt><trkpt lat="45.10274329915871" lon="11.661896532975463"><ele>7.0</ele><time>2026-05-02T09:06:12Z</time></trkpt><trkpt lat="45.10280134595607" lon="11.66177918383487"><ele>6.999999999999999</ele><time>2026-05-02T09:06:13Z</time></trkpt><trkpt lat="45.10286429571966" lon="11.661669141470393"><ele>6.999999999999999</ele><time>2026-05-02T09:06:14Z</time></trkpt><trkpt lat="45.102908904895614" lon="11.661540193876611"><ele>7.0</ele><time>2026-05-02T09:06:15Z</time></trkpt><trkpt lat="45.10293849474404" lon="11.661424211491331"><ele>7.0</ele><time>2026-05-02T09:06:16Z</time></trkpt><trkpt lat="45.1029593311099" lon="11.661276394754443"><ele>7.0</ele><time>2026-05-02T09:06:18Z</time></trkpt><trkpt lat="45.10289166062641" lon="11.66115847480695"><ele>6.999999999999999</ele><time>2026-05-02T09:06:24Z</time></trkpt><trkpt lat="45.10286379968481" lon="11.661061725789402"><ele>6.999999999999999</ele><time>2026-05-02T09:06:25Z</time></trkpt><trkpt lat="45.10289560586511" lon="11.66095136074669"><ele>7.0</ele><time>2026-05-02T09:06:26Z</time></trkpt><trkpt lat="45.10290046385675" lon="11.660814982993815"><ele>7.0</ele><time>2026-05-02T09:06:27Z</time></trkpt><trkpt lat="45.102906306270334" lon="11.660652485398229"><ele>7.0</ele><time>2026-05-02T09:06:28Z</time></trkpt><trkpt lat="45.10289954280373" lon="11.660500944050392"><ele>6.999999999999999</ele><time>2026-05-02T09:06:29Z</time></trkpt><trkpt lat="45.10291181298368" lon="11.660359577612335"><ele>6.999999999999999</ele><time>2026-05-02T09:06:30Z</time></trkpt><trkpt lat="45.10291232066206" lon="11.660217124458137"><ele>7.0</ele><time>2026-05-02T09:06:31Z</time></trkpt><trkpt lat="45.102928265572864" lon="11.66008525954482"><ele>7.0</ele><time>2026-05-02T09:06:32Z</time></trkpt><trkpt lat="45.10293464038989" lon="11.659954932753887"><ele>6.714285714285714</ele><time>2026-05-02T09:06:33Z</time></trkpt><trkpt lat="45.102940590869096" lon="11.659833281547112"><ele>6.428571428571429</ele><time>2026-05-02T09:06:34Z</time></trkpt><trkpt lat="45.10294586904999" lon="11.659725374442969"><ele>6.142857142857142</ele><time>2026-05-02T09:06:35Z</time></trkpt><trkpt lat="45.10295073221417" lon="11.659625951888305"><ele>5.857142857142858</ele><time>2026-05-02T09:06:36Z</time></trkpt><trkpt lat="45.10295580891827" lon="11.659522164008836"><ele>5.571428571428571</ele><time>2026-05-02T09:06:37Z</time></trkpt><trkpt lat="45.10295848391441" lon="11.659427234997192"><ele>5.285714285714286</ele><time>2026-05-02T09:06:38Z</time></trkpt><trkpt lat="45.10295788935791" lon="11.659327790117059"><ele>5.0</ele><time>2026-05-02T09:06:39Z</time></trkpt><trkpt lat="45.10296206218711" lon="11.659235613532239"><ele>5.0</ele><time>2026-05-02T09:06:40Z</time></trkpt><trkpt lat="45.102970261444135" lon="11.65908772121294"><ele>5.0</ele><time>2026-05-02T09:06:42Z</time></trkpt><trkpt lat="45.10297670570713" lon="11.658966543533133"><ele>5.0</ele><time>2026-05-02T09:06:44Z</time></trkpt><trkpt lat="45.10301816725273" lon="11.658855921406877"><ele>5.0</ele><time>2026-05-02T09:06:47Z</time></trkpt></trkseg></trk></gpx>